<?xml version="1.0" encoding="UTF-8" standalone="no" ?>
<gpx xmlns="http://www.topografix.com/GPX/1/1" xmlns:xsi="http://www.w3.org/2001/XMLSchema-instance" xsi:schemaLocation="http://www.topografix.com/GPX/1/1 http://www.topografix.com/GPX/1/1/gpx.xsd" version="1.1" creator="VisuGPX - https://www.visugpx.com">
  <metadata>
    <name>sortie 23/01/22 c'est la première fois</name>
    <desc><![CDATA[Pourquoi la première fois ? J'ai été pris à partie par un beau sanglier sur le chemin des Arpents en venant de la route de Chargey ( kilomètre 22.4 ) Il semblait boîter, quand il m'a vu il a tenté de fuir mais coincé dans un grillage, il a fait demi tour, foncé sur moi en grommelant, a percuté ma roue avant, c'est impressionnant, mais plus de peur que de mal .... peut-être pas pour lui car je l'ai " dénoncé " aux chasseurs en battue un peu plus loin. Grande première ! Pour le reste RAS; ]]></desc>
  </metadata>
  <trk>
    <name><![CDATA[2022-01-23 10:13]]></name>
    <desc><![CDATA[<h1>OruxMaps</h1><br /><hr align="center" width="480" style="height: 2px; width: 517px"/><h2>Nom: 2022-01-23 10:13</h2><br /><p>Temps de départ: 01/23/2022 10:12</p><p>Temps d'arrivée: 01/23/2022 11:53</p><p>Distance: 25,5km (01:40)</p><p>Temps déplacement: 01:32</p><p>Vitesse moyenne: 15,2km/h</p><p>Vitesse moyenne: 16,5km/h</p><p>Vitess Max.: 52,2km/h</p><p>Altitude minimale: 190m</p><p>Altitude maximale: 368m</p><p>Vitesse d'élévation: 542,4m/h</p><p>Vitesse de descente: -676,8m/h</p><p>Gain Altitude: 377m</p><p>Perte Altitude: -404m</p><p>Temps d'élévation: 00:41</p><p>Temps de descente: 00:35</p><hr align="center" width="480" style="height: 2px; width: 517px"/>]]></desc>
    <trkseg>
      <trkpt lat="47.6862" lon="6.04574">
        <ele>242.16</ele>
        <time>2022-01-23T09:12:36Z</time>
      </trkpt>
      <trkpt lat="47.6862" lon="6.04601">
        <ele>241.29</ele>
        <time>2022-01-23T09:12:44Z</time>
      </trkpt>
      <trkpt lat="47.68619" lon="6.04631">
        <ele>241.94</ele>
        <time>2022-01-23T09:12:54Z</time>
      </trkpt>
      <trkpt lat="47.68604" lon="6.04605">
        <ele>242.35</ele>
        <time>2022-01-23T09:13:43Z</time>
      </trkpt>
      <trkpt lat="47.68616" lon="6.04582">
        <ele>246.73</ele>
        <time>2022-01-23T09:18:32Z</time>
      </trkpt>
      <trkpt lat="47.68607" lon="6.04548">
        <ele>240.11</ele>
        <time>2022-01-23T09:18:51Z</time>
      </trkpt>
      <trkpt lat="47.6859" lon="6.04524">
        <ele>238.64</ele>
        <time>2022-01-23T09:18:56Z</time>
      </trkpt>
      <trkpt lat="47.68571" lon="6.04503">
        <ele>238.05</ele>
        <time>2022-01-23T09:18:59Z</time>
      </trkpt>
      <trkpt lat="47.68552" lon="6.04486">
        <ele>238.68</ele>
        <time>2022-01-23T09:19:01Z</time>
      </trkpt>
      <trkpt lat="47.68535" lon="6.04472">
        <ele>239.86</ele>
        <time>2022-01-23T09:19:03Z</time>
      </trkpt>
      <trkpt lat="47.68509" lon="6.04456">
        <ele>241.08</ele>
        <time>2022-01-23T09:19:05Z</time>
      </trkpt>
      <trkpt lat="47.68478" lon="6.04449">
        <ele>239.91</ele>
        <time>2022-01-23T09:19:07Z</time>
      </trkpt>
      <trkpt lat="47.68449" lon="6.04446">
        <ele>237.07</ele>
        <time>2022-01-23T09:19:09Z</time>
      </trkpt>
      <trkpt lat="47.68427" lon="6.04438">
        <ele>236.8</ele>
        <time>2022-01-23T09:19:11Z</time>
      </trkpt>
      <trkpt lat="47.68406" lon="6.04438">
        <ele>235.61</ele>
        <time>2022-01-23T09:19:13Z</time>
      </trkpt>
      <trkpt lat="47.68387" lon="6.04442">
        <ele>232.82</ele>
        <time>2022-01-23T09:19:15Z</time>
      </trkpt>
      <trkpt lat="47.68363" lon="6.04442">
        <ele>228.22</ele>
        <time>2022-01-23T09:19:17Z</time>
      </trkpt>
      <trkpt lat="47.6834" lon="6.04434">
        <ele>221.82</ele>
        <time>2022-01-23T09:19:20Z</time>
      </trkpt>
      <trkpt lat="47.68313" lon="6.04434">
        <ele>217.28</ele>
        <time>2022-01-23T09:19:23Z</time>
      </trkpt>
      <trkpt lat="47.68287" lon="6.0443">
        <ele>213.54</ele>
        <time>2022-01-23T09:19:26Z</time>
      </trkpt>
      <trkpt lat="47.68262" lon="6.04425">
        <ele>209.54</ele>
        <time>2022-01-23T09:19:29Z</time>
      </trkpt>
      <trkpt lat="47.68235" lon="6.04417">
        <ele>206.7</ele>
        <time>2022-01-23T09:19:32Z</time>
      </trkpt>
      <trkpt lat="47.68217" lon="6.04414">
        <ele>206.81</ele>
        <time>2022-01-23T09:19:34Z</time>
      </trkpt>
      <trkpt lat="47.68199" lon="6.04397">
        <ele>207.15</ele>
        <time>2022-01-23T09:19:37Z</time>
      </trkpt>
      <trkpt lat="47.68181" lon="6.04383">
        <ele>207.48</ele>
        <time>2022-01-23T09:19:41Z</time>
      </trkpt>
      <trkpt lat="47.68168" lon="6.04356">
        <ele>204.63</ele>
        <time>2022-01-23T09:19:46Z</time>
      </trkpt>
      <trkpt lat="47.68149" lon="6.04357">
        <ele>203.79</ele>
        <time>2022-01-23T09:19:50Z</time>
      </trkpt>
      <trkpt lat="47.68131" lon="6.04366">
        <ele>203.82</ele>
        <time>2022-01-23T09:19:54Z</time>
      </trkpt>
      <trkpt lat="47.68114" lon="6.04353">
        <ele>201.53</ele>
        <time>2022-01-23T09:20:02Z</time>
      </trkpt>
      <trkpt lat="47.68115" lon="6.04325">
        <ele>199.81</ele>
        <time>2022-01-23T09:20:07Z</time>
      </trkpt>
      <trkpt lat="47.68121" lon="6.04298">
        <ele>197.67</ele>
        <time>2022-01-23T09:20:12Z</time>
      </trkpt>
      <trkpt lat="47.68121" lon="6.04266">
        <ele>196.85</ele>
        <time>2022-01-23T09:20:17Z</time>
      </trkpt>
      <trkpt lat="47.68128" lon="6.04238">
        <ele>197</ele>
        <time>2022-01-23T09:20:20Z</time>
      </trkpt>
      <trkpt lat="47.68139" lon="6.04211">
        <ele>196.74</ele>
        <time>2022-01-23T09:20:31Z</time>
      </trkpt>
      <trkpt lat="47.68147" lon="6.04184">
        <ele>196.13</ele>
        <time>2022-01-23T09:20:36Z</time>
      </trkpt>
      <trkpt lat="47.6815" lon="6.04153">
        <ele>198.3</ele>
        <time>2022-01-23T09:20:42Z</time>
      </trkpt>
      <trkpt lat="47.68161" lon="6.04126">
        <ele>200.85</ele>
        <time>2022-01-23T09:20:46Z</time>
      </trkpt>
      <trkpt lat="47.68178" lon="6.04135">
        <ele>203.99</ele>
        <time>2022-01-23T09:20:54Z</time>
      </trkpt>
      <trkpt lat="47.68198" lon="6.04132">
        <ele>202.82</ele>
        <time>2022-01-23T09:20:58Z</time>
      </trkpt>
      <trkpt lat="47.68219" lon="6.04133">
        <ele>202</ele>
        <time>2022-01-23T09:21:04Z</time>
      </trkpt>
      <trkpt lat="47.68237" lon="6.04136">
        <ele>202.49</ele>
        <time>2022-01-23T09:21:11Z</time>
      </trkpt>
      <trkpt lat="47.68259" lon="6.04144">
        <ele>202.38</ele>
        <time>2022-01-23T09:21:17Z</time>
      </trkpt>
      <trkpt lat="47.68281" lon="6.0415">
        <ele>200.75</ele>
        <time>2022-01-23T09:21:22Z</time>
      </trkpt>
      <trkpt lat="47.68302" lon="6.04149">
        <ele>201.52</ele>
        <time>2022-01-23T09:21:27Z</time>
      </trkpt>
      <trkpt lat="47.68322" lon="6.04151">
        <ele>205.26</ele>
        <time>2022-01-23T09:21:32Z</time>
      </trkpt>
      <trkpt lat="47.68343" lon="6.04153">
        <ele>207.31</ele>
        <time>2022-01-23T09:21:37Z</time>
      </trkpt>
      <trkpt lat="47.68365" lon="6.04148">
        <ele>204.04</ele>
        <time>2022-01-23T09:21:41Z</time>
      </trkpt>
      <trkpt lat="47.68384" lon="6.04152">
        <ele>206.16</ele>
        <time>2022-01-23T09:21:45Z</time>
      </trkpt>
      <trkpt lat="47.68403" lon="6.04148">
        <ele>206.15</ele>
        <time>2022-01-23T09:21:49Z</time>
      </trkpt>
      <trkpt lat="47.6842" lon="6.04155">
        <ele>207.63</ele>
        <time>2022-01-23T09:21:53Z</time>
      </trkpt>
      <trkpt lat="47.68439" lon="6.04162">
        <ele>209.35</ele>
        <time>2022-01-23T09:21:57Z</time>
      </trkpt>
      <trkpt lat="47.68455" lon="6.04147">
        <ele>208.79</ele>
        <time>2022-01-23T09:22:02Z</time>
      </trkpt>
      <trkpt lat="47.68475" lon="6.04161">
        <ele>207.82</ele>
        <time>2022-01-23T09:22:06Z</time>
      </trkpt>
      <trkpt lat="47.68495" lon="6.0417">
        <ele>208.85</ele>
        <time>2022-01-23T09:22:09Z</time>
      </trkpt>
      <trkpt lat="47.68511" lon="6.04184">
        <ele>209.75</ele>
        <time>2022-01-23T09:22:13Z</time>
      </trkpt>
      <trkpt lat="47.68532" lon="6.04188">
        <ele>210.3</ele>
        <time>2022-01-23T09:22:19Z</time>
      </trkpt>
      <trkpt lat="47.68553" lon="6.04186">
        <ele>209.81</ele>
        <time>2022-01-23T09:22:25Z</time>
      </trkpt>
      <trkpt lat="47.68571" lon="6.04194">
        <ele>210.08</ele>
        <time>2022-01-23T09:22:30Z</time>
      </trkpt>
      <trkpt lat="47.68589" lon="6.04207">
        <ele>210.54</ele>
        <time>2022-01-23T09:22:36Z</time>
      </trkpt>
      <trkpt lat="47.68604" lon="6.04222">
        <ele>210.46</ele>
        <time>2022-01-23T09:22:41Z</time>
      </trkpt>
      <trkpt lat="47.68625" lon="6.04229">
        <ele>209.35</ele>
        <time>2022-01-23T09:22:46Z</time>
      </trkpt>
      <trkpt lat="47.68644" lon="6.04235">
        <ele>208.42</ele>
        <time>2022-01-23T09:22:51Z</time>
      </trkpt>
      <trkpt lat="47.68662" lon="6.04234">
        <ele>208.24</ele>
        <time>2022-01-23T09:22:55Z</time>
      </trkpt>
      <trkpt lat="47.68685" lon="6.04239">
        <ele>208.49</ele>
        <time>2022-01-23T09:23:00Z</time>
      </trkpt>
      <trkpt lat="47.68707" lon="6.04235">
        <ele>208.1</ele>
        <time>2022-01-23T09:23:04Z</time>
      </trkpt>
      <trkpt lat="47.68728" lon="6.04229">
        <ele>207.45</ele>
        <time>2022-01-23T09:23:08Z</time>
      </trkpt>
      <trkpt lat="47.68751" lon="6.04227">
        <ele>207.4</ele>
        <time>2022-01-23T09:23:11Z</time>
      </trkpt>
      <trkpt lat="47.68773" lon="6.04227">
        <ele>207.3</ele>
        <time>2022-01-23T09:23:15Z</time>
      </trkpt>
      <trkpt lat="47.68791" lon="6.04231">
        <ele>206.96</ele>
        <time>2022-01-23T09:23:22Z</time>
      </trkpt>
      <trkpt lat="47.68809" lon="6.04243">
        <ele>205.37</ele>
        <time>2022-01-23T09:23:31Z</time>
      </trkpt>
      <trkpt lat="47.68831" lon="6.04248">
        <ele>204.66</ele>
        <time>2022-01-23T09:23:39Z</time>
      </trkpt>
      <trkpt lat="47.68849" lon="6.04243">
        <ele>206.4</ele>
        <time>2022-01-23T09:23:43Z</time>
      </trkpt>
      <trkpt lat="47.68868" lon="6.04237">
        <ele>207.88</ele>
        <time>2022-01-23T09:23:48Z</time>
      </trkpt>
      <trkpt lat="47.68885" lon="6.04247">
        <ele>207.83</ele>
        <time>2022-01-23T09:23:56Z</time>
      </trkpt>
      <trkpt lat="47.68926" lon="6.04272">
        <ele>208.51</ele>
        <time>2022-01-23T09:24:11Z</time>
      </trkpt>
      <trkpt lat="47.68951" lon="6.04278">
        <ele>208.81</ele>
        <time>2022-01-23T09:24:25Z</time>
      </trkpt>
      <trkpt lat="47.68968" lon="6.04267">
        <ele>204.3</ele>
        <time>2022-01-23T09:24:29Z</time>
      </trkpt>
      <trkpt lat="47.68986" lon="6.04267">
        <ele>206.2</ele>
        <time>2022-01-23T09:24:33Z</time>
      </trkpt>
      <trkpt lat="47.69009" lon="6.04266">
        <ele>206.43</ele>
        <time>2022-01-23T09:24:37Z</time>
      </trkpt>
      <trkpt lat="47.69028" lon="6.04265">
        <ele>207.29</ele>
        <time>2022-01-23T09:24:40Z</time>
      </trkpt>
      <trkpt lat="47.69046" lon="6.04284">
        <ele>204.59</ele>
        <time>2022-01-23T09:24:44Z</time>
      </trkpt>
      <trkpt lat="47.69058" lon="6.0431">
        <ele>203.29</ele>
        <time>2022-01-23T09:24:49Z</time>
      </trkpt>
      <trkpt lat="47.69059" lon="6.04341">
        <ele>204.61</ele>
        <time>2022-01-23T09:24:54Z</time>
      </trkpt>
      <trkpt lat="47.69074" lon="6.0436">
        <ele>201.86</ele>
        <time>2022-01-23T09:25:02Z</time>
      </trkpt>
      <trkpt lat="47.69092" lon="6.04348">
        <ele>201.98</ele>
        <time>2022-01-23T09:25:05Z</time>
      </trkpt>
      <trkpt lat="47.69109" lon="6.0434">
        <ele>201.44</ele>
        <time>2022-01-23T09:25:08Z</time>
      </trkpt>
      <trkpt lat="47.69129" lon="6.04345">
        <ele>202.49</ele>
        <time>2022-01-23T09:25:13Z</time>
      </trkpt>
      <trkpt lat="47.69147" lon="6.04354">
        <ele>203.67</ele>
        <time>2022-01-23T09:25:17Z</time>
      </trkpt>
      <trkpt lat="47.69167" lon="6.04367">
        <ele>204.22</ele>
        <time>2022-01-23T09:25:22Z</time>
      </trkpt>
      <trkpt lat="47.69169" lon="6.04397">
        <ele>204.44</ele>
        <time>2022-01-23T09:25:26Z</time>
      </trkpt>
      <trkpt lat="47.69265" lon="6.04427">
        <ele>204.3</ele>
        <time>2022-01-23T09:25:53Z</time>
      </trkpt>
      <trkpt lat="47.69287" lon="6.04433">
        <ele>204.48</ele>
        <time>2022-01-23T09:26:00Z</time>
      </trkpt>
      <trkpt lat="47.69402" lon="6.04413">
        <ele>204.37</ele>
        <time>2022-01-23T09:26:21Z</time>
      </trkpt>
      <trkpt lat="47.69421" lon="6.04425">
        <ele>204.12</ele>
        <time>2022-01-23T09:26:25Z</time>
      </trkpt>
      <trkpt lat="47.69428" lon="6.04455">
        <ele>204.06</ele>
        <time>2022-01-23T09:26:29Z</time>
      </trkpt>
      <trkpt lat="47.69446" lon="6.04464">
        <ele>204.18</ele>
        <time>2022-01-23T09:26:33Z</time>
      </trkpt>
      <trkpt lat="47.69465" lon="6.04463">
        <ele>204.23</ele>
        <time>2022-01-23T09:26:37Z</time>
      </trkpt>
      <trkpt lat="47.69483" lon="6.04465">
        <ele>203.53</ele>
        <time>2022-01-23T09:26:41Z</time>
      </trkpt>
      <trkpt lat="47.69502" lon="6.04471">
        <ele>203.21</ele>
        <time>2022-01-23T09:26:46Z</time>
      </trkpt>
      <trkpt lat="47.69517" lon="6.04487">
        <ele>202.48</ele>
        <time>2022-01-23T09:26:51Z</time>
      </trkpt>
      <trkpt lat="47.69536" lon="6.04483">
        <ele>201.19</ele>
        <time>2022-01-23T09:26:55Z</time>
      </trkpt>
      <trkpt lat="47.69554" lon="6.04476">
        <ele>200.29</ele>
        <time>2022-01-23T09:26:59Z</time>
      </trkpt>
      <trkpt lat="47.69575" lon="6.04472">
        <ele>200.47</ele>
        <time>2022-01-23T09:27:04Z</time>
      </trkpt>
      <trkpt lat="47.69597" lon="6.04472">
        <ele>201.43</ele>
        <time>2022-01-23T09:27:11Z</time>
      </trkpt>
      <trkpt lat="47.69624" lon="6.04454">
        <ele>201.41</ele>
        <time>2022-01-23T09:27:15Z</time>
      </trkpt>
      <trkpt lat="47.69647" lon="6.04443">
        <ele>201.5</ele>
        <time>2022-01-23T09:27:19Z</time>
      </trkpt>
      <trkpt lat="47.69665" lon="6.04422">
        <ele>200.82</ele>
        <time>2022-01-23T09:27:23Z</time>
      </trkpt>
      <trkpt lat="47.69685" lon="6.0442">
        <ele>200.25</ele>
        <time>2022-01-23T09:27:28Z</time>
      </trkpt>
      <trkpt lat="47.69703" lon="6.04438">
        <ele>200.21</ele>
        <time>2022-01-23T09:27:32Z</time>
      </trkpt>
      <trkpt lat="47.69718" lon="6.04461">
        <ele>199.9</ele>
        <time>2022-01-23T09:27:35Z</time>
      </trkpt>
      <trkpt lat="47.69733" lon="6.04479">
        <ele>200.09</ele>
        <time>2022-01-23T09:27:37Z</time>
      </trkpt>
      <trkpt lat="47.69756" lon="6.04485">
        <ele>200.73</ele>
        <time>2022-01-23T09:27:40Z</time>
      </trkpt>
      <trkpt lat="47.69774" lon="6.0448">
        <ele>201.01</ele>
        <time>2022-01-23T09:27:43Z</time>
      </trkpt>
      <trkpt lat="47.69804" lon="6.04471">
        <ele>201.34</ele>
        <time>2022-01-23T09:27:57Z</time>
      </trkpt>
      <trkpt lat="47.69819" lon="6.04452">
        <ele>201.81</ele>
        <time>2022-01-23T09:28:01Z</time>
      </trkpt>
      <trkpt lat="47.69834" lon="6.04426">
        <ele>202.45</ele>
        <time>2022-01-23T09:28:04Z</time>
      </trkpt>
      <trkpt lat="47.69855" lon="6.04429">
        <ele>203.95</ele>
        <time>2022-01-23T09:28:09Z</time>
      </trkpt>
      <trkpt lat="47.69874" lon="6.04423">
        <ele>200.68</ele>
        <time>2022-01-23T09:28:17Z</time>
      </trkpt>
      <trkpt lat="47.69893" lon="6.04417">
        <ele>193.83</ele>
        <time>2022-01-23T09:28:22Z</time>
      </trkpt>
      <trkpt lat="47.69909" lon="6.0443">
        <ele>197.37</ele>
        <time>2022-01-23T09:28:29Z</time>
      </trkpt>
      <trkpt lat="47.69928" lon="6.04429">
        <ele>198.29</ele>
        <time>2022-01-23T09:28:32Z</time>
      </trkpt>
      <trkpt lat="47.69952" lon="6.04422">
        <ele>198.33</ele>
        <time>2022-01-23T09:28:36Z</time>
      </trkpt>
      <trkpt lat="47.6997" lon="6.04414">
        <ele>198.91</ele>
        <time>2022-01-23T09:28:39Z</time>
      </trkpt>
      <trkpt lat="47.69992" lon="6.04404">
        <ele>199.02</ele>
        <time>2022-01-23T09:28:43Z</time>
      </trkpt>
      <trkpt lat="47.70011" lon="6.04387">
        <ele>199.08</ele>
        <time>2022-01-23T09:28:46Z</time>
      </trkpt>
      <trkpt lat="47.70112" lon="6.04458">
        <ele>199.72</ele>
        <time>2022-01-23T09:29:13Z</time>
      </trkpt>
      <trkpt lat="47.7013" lon="6.0447">
        <ele>198.54</ele>
        <time>2022-01-23T09:29:19Z</time>
      </trkpt>
      <trkpt lat="47.7015" lon="6.04474">
        <ele>197.34</ele>
        <time>2022-01-23T09:29:27Z</time>
      </trkpt>
      <trkpt lat="47.70171" lon="6.04463">
        <ele>196.4</ele>
        <time>2022-01-23T09:29:32Z</time>
      </trkpt>
      <trkpt lat="47.70189" lon="6.04451">
        <ele>195.62</ele>
        <time>2022-01-23T09:29:37Z</time>
      </trkpt>
      <trkpt lat="47.70208" lon="6.0445">
        <ele>198.46</ele>
        <time>2022-01-23T09:29:41Z</time>
      </trkpt>
      <trkpt lat="47.7023" lon="6.04446">
        <ele>200.06</ele>
        <time>2022-01-23T09:29:45Z</time>
      </trkpt>
      <trkpt lat="47.70252" lon="6.04434">
        <ele>200</ele>
        <time>2022-01-23T09:29:48Z</time>
      </trkpt>
      <trkpt lat="47.70275" lon="6.0443">
        <ele>200.66</ele>
        <time>2022-01-23T09:29:52Z</time>
      </trkpt>
      <trkpt lat="47.70294" lon="6.04428">
        <ele>200.15</ele>
        <time>2022-01-23T09:29:55Z</time>
      </trkpt>
      <trkpt lat="47.70312" lon="6.04435">
        <ele>198.57</ele>
        <time>2022-01-23T09:30:00Z</time>
      </trkpt>
      <trkpt lat="47.7033" lon="6.04426">
        <ele>202.25</ele>
        <time>2022-01-23T09:30:07Z</time>
      </trkpt>
      <trkpt lat="47.70346" lon="6.04415">
        <ele>198.71</ele>
        <time>2022-01-23T09:30:11Z</time>
      </trkpt>
      <trkpt lat="47.70366" lon="6.04391">
        <ele>193.38</ele>
        <time>2022-01-23T09:30:15Z</time>
      </trkpt>
      <trkpt lat="47.70385" lon="6.04381">
        <ele>190.85</ele>
        <time>2022-01-23T09:30:19Z</time>
      </trkpt>
      <trkpt lat="47.70405" lon="6.04374">
        <ele>193.8</ele>
        <time>2022-01-23T09:30:24Z</time>
      </trkpt>
      <trkpt lat="47.70428" lon="6.04361">
        <ele>197.78</ele>
        <time>2022-01-23T09:30:29Z</time>
      </trkpt>
      <trkpt lat="47.70445" lon="6.04355">
        <ele>200.94</ele>
        <time>2022-01-23T09:30:32Z</time>
      </trkpt>
      <trkpt lat="47.70466" lon="6.0435">
        <ele>202.59</ele>
        <time>2022-01-23T09:30:35Z</time>
      </trkpt>
      <trkpt lat="47.70486" lon="6.04342">
        <ele>203.42</ele>
        <time>2022-01-23T09:30:38Z</time>
      </trkpt>
      <trkpt lat="47.70505" lon="6.04328">
        <ele>203.15</ele>
        <time>2022-01-23T09:30:41Z</time>
      </trkpt>
      <trkpt lat="47.70523" lon="6.04303">
        <ele>202.94</ele>
        <time>2022-01-23T09:30:45Z</time>
      </trkpt>
      <trkpt lat="47.70539" lon="6.04288">
        <ele>202.54</ele>
        <time>2022-01-23T09:30:49Z</time>
      </trkpt>
      <trkpt lat="47.70553" lon="6.04261">
        <ele>201.88</ele>
        <time>2022-01-23T09:30:53Z</time>
      </trkpt>
      <trkpt lat="47.70567" lon="6.04237">
        <ele>201.68</ele>
        <time>2022-01-23T09:30:57Z</time>
      </trkpt>
      <trkpt lat="47.7058" lon="6.04207">
        <ele>202.88</ele>
        <time>2022-01-23T09:31:01Z</time>
      </trkpt>
      <trkpt lat="47.70588" lon="6.04181">
        <ele>204.6</ele>
        <time>2022-01-23T09:31:04Z</time>
      </trkpt>
      <trkpt lat="47.70607" lon="6.04166">
        <ele>205.65</ele>
        <time>2022-01-23T09:31:09Z</time>
      </trkpt>
      <trkpt lat="47.70625" lon="6.04148">
        <ele>205.74</ele>
        <time>2022-01-23T09:31:14Z</time>
      </trkpt>
      <trkpt lat="47.7064" lon="6.04127">
        <ele>206.83</ele>
        <time>2022-01-23T09:31:18Z</time>
      </trkpt>
      <trkpt lat="47.70654" lon="6.04108">
        <ele>208.67</ele>
        <time>2022-01-23T09:31:22Z</time>
      </trkpt>
      <trkpt lat="47.70669" lon="6.04088">
        <ele>209.25</ele>
        <time>2022-01-23T09:31:27Z</time>
      </trkpt>
      <trkpt lat="47.70686" lon="6.0407">
        <ele>209.58</ele>
        <time>2022-01-23T09:31:31Z</time>
      </trkpt>
      <trkpt lat="47.70704" lon="6.04046">
        <ele>209.24</ele>
        <time>2022-01-23T09:31:35Z</time>
      </trkpt>
      <trkpt lat="47.7072" lon="6.04024">
        <ele>209.46</ele>
        <time>2022-01-23T09:31:38Z</time>
      </trkpt>
      <trkpt lat="47.70737" lon="6.04006">
        <ele>209.78</ele>
        <time>2022-01-23T09:31:42Z</time>
      </trkpt>
      <trkpt lat="47.70753" lon="6.03988">
        <ele>209.97</ele>
        <time>2022-01-23T09:31:46Z</time>
      </trkpt>
      <trkpt lat="47.7077" lon="6.03969">
        <ele>211.19</ele>
        <time>2022-01-23T09:31:50Z</time>
      </trkpt>
      <trkpt lat="47.70785" lon="6.03951">
        <ele>211.98</ele>
        <time>2022-01-23T09:31:53Z</time>
      </trkpt>
      <trkpt lat="47.70803" lon="6.03936">
        <ele>211.09</ele>
        <time>2022-01-23T09:31:57Z</time>
      </trkpt>
      <trkpt lat="47.70824" lon="6.03923">
        <ele>210.33</ele>
        <time>2022-01-23T09:32:01Z</time>
      </trkpt>
      <trkpt lat="47.70846" lon="6.0392">
        <ele>209.38</ele>
        <time>2022-01-23T09:32:06Z</time>
      </trkpt>
      <trkpt lat="47.70867" lon="6.0392">
        <ele>207.25</ele>
        <time>2022-01-23T09:32:11Z</time>
      </trkpt>
      <trkpt lat="47.70882" lon="6.03944">
        <ele>206.85</ele>
        <time>2022-01-23T09:32:15Z</time>
      </trkpt>
      <trkpt lat="47.70899" lon="6.0396">
        <ele>207.28</ele>
        <time>2022-01-23T09:32:20Z</time>
      </trkpt>
      <trkpt lat="47.70922" lon="6.03943">
        <ele>208.17</ele>
        <time>2022-01-23T09:32:23Z</time>
      </trkpt>
      <trkpt lat="47.70941" lon="6.03936">
        <ele>208.28</ele>
        <time>2022-01-23T09:32:25Z</time>
      </trkpt>
      <trkpt lat="47.70964" lon="6.03925">
        <ele>208.57</ele>
        <time>2022-01-23T09:32:28Z</time>
      </trkpt>
      <trkpt lat="47.70982" lon="6.0391">
        <ele>209.03</ele>
        <time>2022-01-23T09:32:30Z</time>
      </trkpt>
      <trkpt lat="47.70997" lon="6.03892">
        <ele>209.37</ele>
        <time>2022-01-23T09:32:32Z</time>
      </trkpt>
      <trkpt lat="47.71009" lon="6.03914">
        <ele>208.23</ele>
        <time>2022-01-23T09:32:36Z</time>
      </trkpt>
      <trkpt lat="47.71021" lon="6.03938">
        <ele>203.59</ele>
        <time>2022-01-23T09:32:42Z</time>
      </trkpt>
      <trkpt lat="47.71039" lon="6.03939">
        <ele>202.05</ele>
        <time>2022-01-23T09:32:47Z</time>
      </trkpt>
      <trkpt lat="47.71054" lon="6.03923">
        <ele>201.3</ele>
        <time>2022-01-23T09:32:52Z</time>
      </trkpt>
      <trkpt lat="47.71089" lon="6.03879">
        <ele>201.01</ele>
        <time>2022-01-23T09:32:58Z</time>
      </trkpt>
      <trkpt lat="47.71111" lon="6.0387">
        <ele>202.18</ele>
        <time>2022-01-23T09:33:01Z</time>
      </trkpt>
      <trkpt lat="47.71131" lon="6.03876">
        <ele>204.67</ele>
        <time>2022-01-23T09:33:06Z</time>
      </trkpt>
      <trkpt lat="47.71151" lon="6.03879">
        <ele>206.64</ele>
        <time>2022-01-23T09:33:13Z</time>
      </trkpt>
      <trkpt lat="47.71171" lon="6.03877">
        <ele>206.02</ele>
        <time>2022-01-23T09:33:22Z</time>
      </trkpt>
      <trkpt lat="47.71188" lon="6.03862">
        <ele>205.96</ele>
        <time>2022-01-23T09:33:28Z</time>
      </trkpt>
      <trkpt lat="47.7121" lon="6.03857">
        <ele>207.92</ele>
        <time>2022-01-23T09:33:33Z</time>
      </trkpt>
      <trkpt lat="47.71229" lon="6.0387">
        <ele>209.63</ele>
        <time>2022-01-23T09:33:39Z</time>
      </trkpt>
      <trkpt lat="47.7125" lon="6.03871">
        <ele>211.78</ele>
        <time>2022-01-23T09:33:45Z</time>
      </trkpt>
      <trkpt lat="47.71262" lon="6.03894">
        <ele>213.32</ele>
        <time>2022-01-23T09:33:54Z</time>
      </trkpt>
      <trkpt lat="47.71277" lon="6.03915">
        <ele>213.55</ele>
        <time>2022-01-23T09:34:03Z</time>
      </trkpt>
      <trkpt lat="47.71294" lon="6.03929">
        <ele>213.99</ele>
        <time>2022-01-23T09:34:11Z</time>
      </trkpt>
      <trkpt lat="47.71306" lon="6.0395">
        <ele>214.62</ele>
        <time>2022-01-23T09:34:20Z</time>
      </trkpt>
      <trkpt lat="47.71314" lon="6.03974">
        <ele>215.76</ele>
        <time>2022-01-23T09:34:29Z</time>
      </trkpt>
      <trkpt lat="47.71319" lon="6.04003">
        <ele>215.01</ele>
        <time>2022-01-23T09:34:38Z</time>
      </trkpt>
      <trkpt lat="47.71337" lon="6.04011">
        <ele>215.15</ele>
        <time>2022-01-23T09:34:49Z</time>
      </trkpt>
      <trkpt lat="47.7134" lon="6.04039">
        <ele>218.11</ele>
        <time>2022-01-23T09:34:59Z</time>
      </trkpt>
      <trkpt lat="47.71344" lon="6.04069">
        <ele>218.8</ele>
        <time>2022-01-23T09:35:08Z</time>
      </trkpt>
      <trkpt lat="47.71348" lon="6.04098">
        <ele>218.08</ele>
        <time>2022-01-23T09:35:17Z</time>
      </trkpt>
      <trkpt lat="47.7135" lon="6.04125">
        <ele>220.99</ele>
        <time>2022-01-23T09:35:25Z</time>
      </trkpt>
      <trkpt lat="47.71363" lon="6.04146">
        <ele>223.33</ele>
        <time>2022-01-23T09:35:34Z</time>
      </trkpt>
      <trkpt lat="47.7137" lon="6.04174">
        <ele>226.19</ele>
        <time>2022-01-23T09:35:42Z</time>
      </trkpt>
      <trkpt lat="47.71377" lon="6.04198">
        <ele>225.61</ele>
        <time>2022-01-23T09:35:50Z</time>
      </trkpt>
      <trkpt lat="47.71387" lon="6.04224">
        <ele>226.29</ele>
        <time>2022-01-23T09:35:58Z</time>
      </trkpt>
      <trkpt lat="47.71404" lon="6.04238">
        <ele>226.63</ele>
        <time>2022-01-23T09:36:07Z</time>
      </trkpt>
      <trkpt lat="47.71422" lon="6.0424">
        <ele>226.47</ele>
        <time>2022-01-23T09:36:14Z</time>
      </trkpt>
      <trkpt lat="47.71442" lon="6.04234">
        <ele>226.6</ele>
        <time>2022-01-23T09:36:21Z</time>
      </trkpt>
      <trkpt lat="47.7146" lon="6.04227">
        <ele>226.28</ele>
        <time>2022-01-23T09:36:28Z</time>
      </trkpt>
      <trkpt lat="47.71478" lon="6.04219">
        <ele>228.24</ele>
        <time>2022-01-23T09:36:36Z</time>
      </trkpt>
      <trkpt lat="47.71497" lon="6.04221">
        <ele>227.99</ele>
        <time>2022-01-23T09:36:45Z</time>
      </trkpt>
      <trkpt lat="47.71515" lon="6.04225">
        <ele>228.19</ele>
        <time>2022-01-23T09:36:53Z</time>
      </trkpt>
      <trkpt lat="47.71535" lon="6.04231">
        <ele>227.9</ele>
        <time>2022-01-23T09:37:04Z</time>
      </trkpt>
      <trkpt lat="47.71556" lon="6.04225">
        <ele>228.28</ele>
        <time>2022-01-23T09:37:11Z</time>
      </trkpt>
      <trkpt lat="47.71574" lon="6.04225">
        <ele>228.84</ele>
        <time>2022-01-23T09:37:21Z</time>
      </trkpt>
      <trkpt lat="47.71585" lon="6.04246">
        <ele>230.21</ele>
        <time>2022-01-23T09:37:29Z</time>
      </trkpt>
      <trkpt lat="47.71602" lon="6.04234">
        <ele>230.24</ele>
        <time>2022-01-23T09:37:35Z</time>
      </trkpt>
      <trkpt lat="47.71621" lon="6.04242">
        <ele>231.04</ele>
        <time>2022-01-23T09:37:45Z</time>
      </trkpt>
      <trkpt lat="47.71641" lon="6.04232">
        <ele>230.78</ele>
        <time>2022-01-23T09:37:50Z</time>
      </trkpt>
      <trkpt lat="47.71661" lon="6.04212">
        <ele>230.68</ele>
        <time>2022-01-23T09:37:53Z</time>
      </trkpt>
      <trkpt lat="47.71679" lon="6.04197">
        <ele>230.35</ele>
        <time>2022-01-23T09:37:56Z</time>
      </trkpt>
      <trkpt lat="47.71699" lon="6.04189">
        <ele>229.51</ele>
        <time>2022-01-23T09:38:00Z</time>
      </trkpt>
      <trkpt lat="47.71719" lon="6.0418">
        <ele>229.12</ele>
        <time>2022-01-23T09:38:03Z</time>
      </trkpt>
      <trkpt lat="47.7174" lon="6.04175">
        <ele>228.94</ele>
        <time>2022-01-23T09:38:07Z</time>
      </trkpt>
      <trkpt lat="47.71755" lon="6.0415">
        <ele>227.71</ele>
        <time>2022-01-23T09:38:10Z</time>
      </trkpt>
      <trkpt lat="47.71773" lon="6.0414">
        <ele>227.66</ele>
        <time>2022-01-23T09:38:13Z</time>
      </trkpt>
      <trkpt lat="47.71792" lon="6.0416">
        <ele>228.4</ele>
        <time>2022-01-23T09:38:17Z</time>
      </trkpt>
      <trkpt lat="47.71808" lon="6.04174">
        <ele>229.28</ele>
        <time>2022-01-23T09:38:20Z</time>
      </trkpt>
      <trkpt lat="47.7182" lon="6.04201">
        <ele>229.64</ele>
        <time>2022-01-23T09:38:24Z</time>
      </trkpt>
      <trkpt lat="47.71829" lon="6.04228">
        <ele>229.36</ele>
        <time>2022-01-23T09:38:28Z</time>
      </trkpt>
      <trkpt lat="47.71843" lon="6.04252">
        <ele>228.68</ele>
        <time>2022-01-23T09:38:33Z</time>
      </trkpt>
      <trkpt lat="47.71855" lon="6.04272">
        <ele>228.7</ele>
        <time>2022-01-23T09:38:37Z</time>
      </trkpt>
      <trkpt lat="47.71863" lon="6.043">
        <ele>229.06</ele>
        <time>2022-01-23T09:38:41Z</time>
      </trkpt>
      <trkpt lat="47.7187" lon="6.04329">
        <ele>228.68</ele>
        <time>2022-01-23T09:38:45Z</time>
      </trkpt>
      <trkpt lat="47.71886" lon="6.04342">
        <ele>227.29</ele>
        <time>2022-01-23T09:38:49Z</time>
      </trkpt>
      <trkpt lat="47.71905" lon="6.04354">
        <ele>226.1</ele>
        <time>2022-01-23T09:38:53Z</time>
      </trkpt>
      <trkpt lat="47.71918" lon="6.04375">
        <ele>225.61</ele>
        <time>2022-01-23T09:38:57Z</time>
      </trkpt>
      <trkpt lat="47.71929" lon="6.04396">
        <ele>225.75</ele>
        <time>2022-01-23T09:39:01Z</time>
      </trkpt>
      <trkpt lat="47.7194" lon="6.04427">
        <ele>224.98</ele>
        <time>2022-01-23T09:39:05Z</time>
      </trkpt>
      <trkpt lat="47.71956" lon="6.0445">
        <ele>223.74</ele>
        <time>2022-01-23T09:39:10Z</time>
      </trkpt>
      <trkpt lat="47.71969" lon="6.04471">
        <ele>223.53</ele>
        <time>2022-01-23T09:39:14Z</time>
      </trkpt>
      <trkpt lat="47.7198" lon="6.04495">
        <ele>223.91</ele>
        <time>2022-01-23T09:39:18Z</time>
      </trkpt>
      <trkpt lat="47.71996" lon="6.04514">
        <ele>224.14</ele>
        <time>2022-01-23T09:39:24Z</time>
      </trkpt>
      <trkpt lat="47.72009" lon="6.0454">
        <ele>224.2</ele>
        <time>2022-01-23T09:39:29Z</time>
      </trkpt>
      <trkpt lat="47.72023" lon="6.04563">
        <ele>224.76</ele>
        <time>2022-01-23T09:39:35Z</time>
      </trkpt>
      <trkpt lat="47.72038" lon="6.04581">
        <ele>228.88</ele>
        <time>2022-01-23T09:39:42Z</time>
      </trkpt>
      <trkpt lat="47.72047" lon="6.04609">
        <ele>231.99</ele>
        <time>2022-01-23T09:39:49Z</time>
      </trkpt>
      <trkpt lat="47.72054" lon="6.04638">
        <ele>233.76</ele>
        <time>2022-01-23T09:39:55Z</time>
      </trkpt>
      <trkpt lat="47.72059" lon="6.04665">
        <ele>234.91</ele>
        <time>2022-01-23T09:39:59Z</time>
      </trkpt>
      <trkpt lat="47.72064" lon="6.04696">
        <ele>235.26</ele>
        <time>2022-01-23T09:40:04Z</time>
      </trkpt>
      <trkpt lat="47.72073" lon="6.0472">
        <ele>236.45</ele>
        <time>2022-01-23T09:40:09Z</time>
      </trkpt>
      <trkpt lat="47.72084" lon="6.04747">
        <ele>236.72</ele>
        <time>2022-01-23T09:40:15Z</time>
      </trkpt>
      <trkpt lat="47.72096" lon="6.04769">
        <ele>236.73</ele>
        <time>2022-01-23T09:40:20Z</time>
      </trkpt>
      <trkpt lat="47.72107" lon="6.04791">
        <ele>237.31</ele>
        <time>2022-01-23T09:40:24Z</time>
      </trkpt>
      <trkpt lat="47.72119" lon="6.0481">
        <ele>237.57</ele>
        <time>2022-01-23T09:40:28Z</time>
      </trkpt>
      <trkpt lat="47.7214" lon="6.04814">
        <ele>237.49</ele>
        <time>2022-01-23T09:40:34Z</time>
      </trkpt>
      <trkpt lat="47.7216" lon="6.04821">
        <ele>237.3</ele>
        <time>2022-01-23T09:40:39Z</time>
      </trkpt>
      <trkpt lat="47.72181" lon="6.04825">
        <ele>236.86</ele>
        <time>2022-01-23T09:40:44Z</time>
      </trkpt>
      <trkpt lat="47.72201" lon="6.04831">
        <ele>236.84</ele>
        <time>2022-01-23T09:40:49Z</time>
      </trkpt>
      <trkpt lat="47.72219" lon="6.0483">
        <ele>236.95</ele>
        <time>2022-01-23T09:40:52Z</time>
      </trkpt>
      <trkpt lat="47.72238" lon="6.0483">
        <ele>237.16</ele>
        <time>2022-01-23T09:40:55Z</time>
      </trkpt>
      <trkpt lat="47.72258" lon="6.04835">
        <ele>237.79</ele>
        <time>2022-01-23T09:40:58Z</time>
      </trkpt>
      <trkpt lat="47.72277" lon="6.04845">
        <ele>238.71</ele>
        <time>2022-01-23T09:41:01Z</time>
      </trkpt>
      <trkpt lat="47.72297" lon="6.04859">
        <ele>239.05</ele>
        <time>2022-01-23T09:41:04Z</time>
      </trkpt>
      <trkpt lat="47.72311" lon="6.04879">
        <ele>238.81</ele>
        <time>2022-01-23T09:41:07Z</time>
      </trkpt>
      <trkpt lat="47.72325" lon="6.04903">
        <ele>239.15</ele>
        <time>2022-01-23T09:41:10Z</time>
      </trkpt>
      <trkpt lat="47.7234" lon="6.04924">
        <ele>239.45</ele>
        <time>2022-01-23T09:41:13Z</time>
      </trkpt>
      <trkpt lat="47.72358" lon="6.04946">
        <ele>238.91</ele>
        <time>2022-01-23T09:41:17Z</time>
      </trkpt>
      <trkpt lat="47.72371" lon="6.0497">
        <ele>239.12</ele>
        <time>2022-01-23T09:41:20Z</time>
      </trkpt>
      <trkpt lat="47.72386" lon="6.04987">
        <ele>239.28</ele>
        <time>2022-01-23T09:41:23Z</time>
      </trkpt>
      <trkpt lat="47.72393" lon="6.05014">
        <ele>239.36</ele>
        <time>2022-01-23T09:41:26Z</time>
      </trkpt>
      <trkpt lat="47.72414" lon="6.05022">
        <ele>238.65</ele>
        <time>2022-01-23T09:41:30Z</time>
      </trkpt>
      <trkpt lat="47.72421" lon="6.05056">
        <ele>238.08</ele>
        <time>2022-01-23T09:41:34Z</time>
      </trkpt>
      <trkpt lat="47.72432" lon="6.05082">
        <ele>238.9</ele>
        <time>2022-01-23T09:41:38Z</time>
      </trkpt>
      <trkpt lat="47.72452" lon="6.05087">
        <ele>239.82</ele>
        <time>2022-01-23T09:41:43Z</time>
      </trkpt>
      <trkpt lat="47.72468" lon="6.05106">
        <ele>241.66</ele>
        <time>2022-01-23T09:41:48Z</time>
      </trkpt>
      <trkpt lat="47.72487" lon="6.05117">
        <ele>241.1</ele>
        <time>2022-01-23T09:41:53Z</time>
      </trkpt>
      <trkpt lat="47.72502" lon="6.05134">
        <ele>240.98</ele>
        <time>2022-01-23T09:41:56Z</time>
      </trkpt>
      <trkpt lat="47.7252" lon="6.0515">
        <ele>241.42</ele>
        <time>2022-01-23T09:41:59Z</time>
      </trkpt>
      <trkpt lat="47.72535" lon="6.05175">
        <ele>241.48</ele>
        <time>2022-01-23T09:42:02Z</time>
      </trkpt>
      <trkpt lat="47.72554" lon="6.05193">
        <ele>241.57</ele>
        <time>2022-01-23T09:42:05Z</time>
      </trkpt>
      <trkpt lat="47.72562" lon="6.0523">
        <ele>241.43</ele>
        <time>2022-01-23T09:42:08Z</time>
      </trkpt>
      <trkpt lat="47.72568" lon="6.05269">
        <ele>240.05</ele>
        <time>2022-01-23T09:42:11Z</time>
      </trkpt>
      <trkpt lat="47.72573" lon="6.05304">
        <ele>239.08</ele>
        <time>2022-01-23T09:42:14Z</time>
      </trkpt>
      <trkpt lat="47.72565" lon="6.0533">
        <ele>238.38</ele>
        <time>2022-01-23T09:42:16Z</time>
      </trkpt>
      <trkpt lat="47.7255" lon="6.05356">
        <ele>238.11</ele>
        <time>2022-01-23T09:42:18Z</time>
      </trkpt>
      <trkpt lat="47.72532" lon="6.05385">
        <ele>238.09</ele>
        <time>2022-01-23T09:42:20Z</time>
      </trkpt>
      <trkpt lat="47.72521" lon="6.05407">
        <ele>237.61</ele>
        <time>2022-01-23T09:42:22Z</time>
      </trkpt>
      <trkpt lat="47.72515" lon="6.05435">
        <ele>234.69</ele>
        <time>2022-01-23T09:42:24Z</time>
      </trkpt>
      <trkpt lat="47.7252" lon="6.05467">
        <ele>232.72</ele>
        <time>2022-01-23T09:42:27Z</time>
      </trkpt>
      <trkpt lat="47.72521" lon="6.05495">
        <ele>232.04</ele>
        <time>2022-01-23T09:42:29Z</time>
      </trkpt>
      <trkpt lat="47.72534" lon="6.05518">
        <ele>231.85</ele>
        <time>2022-01-23T09:42:32Z</time>
      </trkpt>
      <trkpt lat="47.72567" lon="6.05502">
        <ele>232</ele>
        <time>2022-01-23T09:42:34Z</time>
      </trkpt>
      <trkpt lat="47.72593" lon="6.05477">
        <ele>231.84</ele>
        <time>2022-01-23T09:42:36Z</time>
      </trkpt>
      <trkpt lat="47.7261" lon="6.05451">
        <ele>231.3</ele>
        <time>2022-01-23T09:42:38Z</time>
      </trkpt>
      <trkpt lat="47.72621" lon="6.05429">
        <ele>231.11</ele>
        <time>2022-01-23T09:42:40Z</time>
      </trkpt>
      <trkpt lat="47.72634" lon="6.05402">
        <ele>230.92</ele>
        <time>2022-01-23T09:42:43Z</time>
      </trkpt>
      <trkpt lat="47.72644" lon="6.05379">
        <ele>230.6</ele>
        <time>2022-01-23T09:42:46Z</time>
      </trkpt>
      <trkpt lat="47.72661" lon="6.05362">
        <ele>231.23</ele>
        <time>2022-01-23T09:42:51Z</time>
      </trkpt>
      <trkpt lat="47.72679" lon="6.05358">
        <ele>231.51</ele>
        <time>2022-01-23T09:42:54Z</time>
      </trkpt>
      <trkpt lat="47.72725" lon="6.05326">
        <ele>231.83</ele>
        <time>2022-01-23T09:42:59Z</time>
      </trkpt>
      <trkpt lat="47.7275" lon="6.05332">
        <ele>231.66</ele>
        <time>2022-01-23T09:43:03Z</time>
      </trkpt>
      <trkpt lat="47.72769" lon="6.0533">
        <ele>230.95</ele>
        <time>2022-01-23T09:43:05Z</time>
      </trkpt>
      <trkpt lat="47.72788" lon="6.05331">
        <ele>230.28</ele>
        <time>2022-01-23T09:43:07Z</time>
      </trkpt>
      <trkpt lat="47.72814" lon="6.05336">
        <ele>229.62</ele>
        <time>2022-01-23T09:43:10Z</time>
      </trkpt>
      <trkpt lat="47.72833" lon="6.0534">
        <ele>229.17</ele>
        <time>2022-01-23T09:43:12Z</time>
      </trkpt>
      <trkpt lat="47.7285" lon="6.05348">
        <ele>229.28</ele>
        <time>2022-01-23T09:43:14Z</time>
      </trkpt>
      <trkpt lat="47.7287" lon="6.05362">
        <ele>229.93</ele>
        <time>2022-01-23T09:43:17Z</time>
      </trkpt>
      <trkpt lat="47.72884" lon="6.05384">
        <ele>230.06</ele>
        <time>2022-01-23T09:43:20Z</time>
      </trkpt>
      <trkpt lat="47.72899" lon="6.054">
        <ele>229.15</ele>
        <time>2022-01-23T09:43:23Z</time>
      </trkpt>
      <trkpt lat="47.7292" lon="6.05417">
        <ele>227.02</ele>
        <time>2022-01-23T09:43:27Z</time>
      </trkpt>
      <trkpt lat="47.72938" lon="6.05419">
        <ele>223.46</ele>
        <time>2022-01-23T09:43:30Z</time>
      </trkpt>
      <trkpt lat="47.72957" lon="6.05434">
        <ele>219.6</ele>
        <time>2022-01-23T09:43:34Z</time>
      </trkpt>
      <trkpt lat="47.72975" lon="6.05451">
        <ele>217.44</ele>
        <time>2022-01-23T09:43:38Z</time>
      </trkpt>
      <trkpt lat="47.72994" lon="6.05469">
        <ele>215.73</ele>
        <time>2022-01-23T09:43:42Z</time>
      </trkpt>
      <trkpt lat="47.73015" lon="6.05483">
        <ele>215.32</ele>
        <time>2022-01-23T09:43:46Z</time>
      </trkpt>
      <trkpt lat="47.73032" lon="6.0547">
        <ele>214.81</ele>
        <time>2022-01-23T09:43:49Z</time>
      </trkpt>
      <trkpt lat="47.73047" lon="6.05451">
        <ele>212.75</ele>
        <time>2022-01-23T09:43:54Z</time>
      </trkpt>
      <trkpt lat="47.73055" lon="6.0542">
        <ele>211.11</ele>
        <time>2022-01-23T09:43:59Z</time>
      </trkpt>
      <trkpt lat="47.73063" lon="6.05395">
        <ele>211.93</ele>
        <time>2022-01-23T09:44:02Z</time>
      </trkpt>
      <trkpt lat="47.73072" lon="6.05365">
        <ele>212.42</ele>
        <time>2022-01-23T09:44:05Z</time>
      </trkpt>
      <trkpt lat="47.7308" lon="6.05339">
        <ele>213.48</ele>
        <time>2022-01-23T09:44:11Z</time>
      </trkpt>
      <trkpt lat="47.73089" lon="6.05313">
        <ele>213.17</ele>
        <time>2022-01-23T09:44:15Z</time>
      </trkpt>
      <trkpt lat="47.73092" lon="6.05284">
        <ele>212.75</ele>
        <time>2022-01-23T09:44:20Z</time>
      </trkpt>
      <trkpt lat="47.73099" lon="6.05252">
        <ele>212.84</ele>
        <time>2022-01-23T09:44:24Z</time>
      </trkpt>
      <trkpt lat="47.7311" lon="6.05226">
        <ele>213.05</ele>
        <time>2022-01-23T09:44:28Z</time>
      </trkpt>
      <trkpt lat="47.73112" lon="6.05198">
        <ele>212.36</ele>
        <time>2022-01-23T09:44:33Z</time>
      </trkpt>
      <trkpt lat="47.73122" lon="6.05167">
        <ele>210.51</ele>
        <time>2022-01-23T09:44:36Z</time>
      </trkpt>
      <trkpt lat="47.73126" lon="6.05139">
        <ele>209.35</ele>
        <time>2022-01-23T09:44:39Z</time>
      </trkpt>
      <trkpt lat="47.73131" lon="6.05107">
        <ele>214.19</ele>
        <time>2022-01-23T09:44:43Z</time>
      </trkpt>
      <trkpt lat="47.73129" lon="6.05078">
        <ele>215.33</ele>
        <time>2022-01-23T09:44:48Z</time>
      </trkpt>
      <trkpt lat="47.73132" lon="6.05046">
        <ele>212.63</ele>
        <time>2022-01-23T09:44:53Z</time>
      </trkpt>
      <trkpt lat="47.73135" lon="6.05016">
        <ele>208.76</ele>
        <time>2022-01-23T09:44:57Z</time>
      </trkpt>
      <trkpt lat="47.73133" lon="6.04988">
        <ele>206.84</ele>
        <time>2022-01-23T09:45:02Z</time>
      </trkpt>
      <trkpt lat="47.73126" lon="6.04962">
        <ele>209.88</ele>
        <time>2022-01-23T09:45:07Z</time>
      </trkpt>
      <trkpt lat="47.7312" lon="6.04935">
        <ele>213.43</ele>
        <time>2022-01-23T09:45:12Z</time>
      </trkpt>
      <trkpt lat="47.73103" lon="6.0492">
        <ele>216.36</ele>
        <time>2022-01-23T09:45:16Z</time>
      </trkpt>
      <trkpt lat="47.73095" lon="6.04897">
        <ele>220.42</ele>
        <time>2022-01-23T09:45:23Z</time>
      </trkpt>
      <trkpt lat="47.7308" lon="6.04877">
        <ele>219.42</ele>
        <time>2022-01-23T09:45:30Z</time>
      </trkpt>
      <trkpt lat="47.73067" lon="6.04856">
        <ele>218.63</ele>
        <time>2022-01-23T09:45:35Z</time>
      </trkpt>
      <trkpt lat="47.73048" lon="6.04848">
        <ele>217.24</ele>
        <time>2022-01-23T09:45:41Z</time>
      </trkpt>
      <trkpt lat="47.7303" lon="6.04845">
        <ele>216.04</ele>
        <time>2022-01-23T09:45:45Z</time>
      </trkpt>
      <trkpt lat="47.73012" lon="6.04841">
        <ele>214.19</ele>
        <time>2022-01-23T09:45:49Z</time>
      </trkpt>
      <trkpt lat="47.72992" lon="6.04843">
        <ele>212.04</ele>
        <time>2022-01-23T09:45:52Z</time>
      </trkpt>
      <trkpt lat="47.72971" lon="6.04833">
        <ele>209.78</ele>
        <time>2022-01-23T09:45:56Z</time>
      </trkpt>
      <trkpt lat="47.72962" lon="6.0481">
        <ele>209.38</ele>
        <time>2022-01-23T09:46:01Z</time>
      </trkpt>
      <trkpt lat="47.72952" lon="6.04786">
        <ele>206.43</ele>
        <time>2022-01-23T09:46:19Z</time>
      </trkpt>
      <trkpt lat="47.72959" lon="6.04756">
        <ele>206.27</ele>
        <time>2022-01-23T09:46:23Z</time>
      </trkpt>
      <trkpt lat="47.72954" lon="6.0473">
        <ele>205.1</ele>
        <time>2022-01-23T09:46:28Z</time>
      </trkpt>
      <trkpt lat="47.72964" lon="6.04759">
        <ele>204.7</ele>
        <time>2022-01-23T09:46:38Z</time>
      </trkpt>
      <trkpt lat="47.72967" lon="6.04729">
        <ele>202.33</ele>
        <time>2022-01-23T09:46:46Z</time>
      </trkpt>
      <trkpt lat="47.72946" lon="6.0473">
        <ele>201.48</ele>
        <time>2022-01-23T09:46:53Z</time>
      </trkpt>
      <trkpt lat="47.72931" lon="6.04706">
        <ele>207</ele>
        <time>2022-01-23T09:47:14Z</time>
      </trkpt>
      <trkpt lat="47.7291" lon="6.04715">
        <ele>213.56</ele>
        <time>2022-01-23T09:47:24Z</time>
      </trkpt>
      <trkpt lat="47.72892" lon="6.04719">
        <ele>213.85</ele>
        <time>2022-01-23T09:47:28Z</time>
      </trkpt>
      <trkpt lat="47.72874" lon="6.0471">
        <ele>214.19</ele>
        <time>2022-01-23T09:47:34Z</time>
      </trkpt>
      <trkpt lat="47.72857" lon="6.047">
        <ele>214.39</ele>
        <time>2022-01-23T09:47:40Z</time>
      </trkpt>
      <trkpt lat="47.72838" lon="6.04689">
        <ele>214.78</ele>
        <time>2022-01-23T09:47:46Z</time>
      </trkpt>
      <trkpt lat="47.7282" lon="6.04688">
        <ele>214.84</ele>
        <time>2022-01-23T09:47:50Z</time>
      </trkpt>
      <trkpt lat="47.72805" lon="6.04671">
        <ele>215.85</ele>
        <time>2022-01-23T09:47:58Z</time>
      </trkpt>
      <trkpt lat="47.72804" lon="6.04643">
        <ele>216.06</ele>
        <time>2022-01-23T09:48:10Z</time>
      </trkpt>
      <trkpt lat="47.72816" lon="6.0462">
        <ele>216.35</ele>
        <time>2022-01-23T09:48:12Z</time>
      </trkpt>
      <trkpt lat="47.72819" lon="6.04593">
        <ele>216.91</ele>
        <time>2022-01-23T09:48:15Z</time>
      </trkpt>
      <trkpt lat="47.72824" lon="6.04561">
        <ele>217.51</ele>
        <time>2022-01-23T09:48:18Z</time>
      </trkpt>
      <trkpt lat="47.72815" lon="6.04531">
        <ele>218.2</ele>
        <time>2022-01-23T09:48:22Z</time>
      </trkpt>
      <trkpt lat="47.72804" lon="6.04509">
        <ele>218.12</ele>
        <time>2022-01-23T09:48:25Z</time>
      </trkpt>
      <trkpt lat="47.72795" lon="6.04484">
        <ele>217.81</ele>
        <time>2022-01-23T09:48:29Z</time>
      </trkpt>
      <trkpt lat="47.7279" lon="6.04457">
        <ele>217.09</ele>
        <time>2022-01-23T09:48:35Z</time>
      </trkpt>
      <trkpt lat="47.72789" lon="6.0443">
        <ele>216.34</ele>
        <time>2022-01-23T09:48:38Z</time>
      </trkpt>
      <trkpt lat="47.72784" lon="6.04403">
        <ele>215.78</ele>
        <time>2022-01-23T09:48:42Z</time>
      </trkpt>
      <trkpt lat="47.72776" lon="6.04376">
        <ele>215.87</ele>
        <time>2022-01-23T09:48:46Z</time>
      </trkpt>
      <trkpt lat="47.72764" lon="6.0435">
        <ele>214.98</ele>
        <time>2022-01-23T09:48:50Z</time>
      </trkpt>
      <trkpt lat="47.72765" lon="6.0432">
        <ele>212.98</ele>
        <time>2022-01-23T09:48:57Z</time>
      </trkpt>
      <trkpt lat="47.72753" lon="6.04299">
        <ele>211.56</ele>
        <time>2022-01-23T09:49:02Z</time>
      </trkpt>
      <trkpt lat="47.72736" lon="6.04283">
        <ele>211.29</ele>
        <time>2022-01-23T09:49:06Z</time>
      </trkpt>
      <trkpt lat="47.72712" lon="6.04269">
        <ele>211.16</ele>
        <time>2022-01-23T09:49:09Z</time>
      </trkpt>
      <trkpt lat="47.72682" lon="6.04238">
        <ele>211</ele>
        <time>2022-01-23T09:49:10Z</time>
      </trkpt>
      <trkpt lat="47.72675" lon="6.0421">
        <ele>211.15</ele>
        <time>2022-01-23T09:49:14Z</time>
      </trkpt>
      <trkpt lat="47.72686" lon="6.04179">
        <ele>211.04</ele>
        <time>2022-01-23T09:49:20Z</time>
      </trkpt>
      <trkpt lat="47.72693" lon="6.04152">
        <ele>211.02</ele>
        <time>2022-01-23T09:49:22Z</time>
      </trkpt>
      <trkpt lat="47.7269" lon="6.04124">
        <ele>211.75</ele>
        <time>2022-01-23T09:49:25Z</time>
      </trkpt>
      <trkpt lat="47.72678" lon="6.04096">
        <ele>212.81</ele>
        <time>2022-01-23T09:49:28Z</time>
      </trkpt>
      <trkpt lat="47.72663" lon="6.04079">
        <ele>213.53</ele>
        <time>2022-01-23T09:49:31Z</time>
      </trkpt>
      <trkpt lat="47.72655" lon="6.04047">
        <ele>214.13</ele>
        <time>2022-01-23T09:49:35Z</time>
      </trkpt>
      <trkpt lat="47.72651" lon="6.04018">
        <ele>214.47</ele>
        <time>2022-01-23T09:49:39Z</time>
      </trkpt>
      <trkpt lat="47.72648" lon="6.03991">
        <ele>215.07</ele>
        <time>2022-01-23T09:49:44Z</time>
      </trkpt>
      <trkpt lat="47.72648" lon="6.0396">
        <ele>215.5</ele>
        <time>2022-01-23T09:49:49Z</time>
      </trkpt>
      <trkpt lat="47.72654" lon="6.03935">
        <ele>215.71</ele>
        <time>2022-01-23T09:49:53Z</time>
      </trkpt>
      <trkpt lat="47.72654" lon="6.03908">
        <ele>214.87</ele>
        <time>2022-01-23T09:50:00Z</time>
      </trkpt>
      <trkpt lat="47.72654" lon="6.03881">
        <ele>214.57</ele>
        <time>2022-01-23T09:50:06Z</time>
      </trkpt>
      <trkpt lat="47.72656" lon="6.0385">
        <ele>215.05</ele>
        <time>2022-01-23T09:50:15Z</time>
      </trkpt>
      <trkpt lat="47.72658" lon="6.03819">
        <ele>215.33</ele>
        <time>2022-01-23T09:50:25Z</time>
      </trkpt>
      <trkpt lat="47.7267" lon="6.03799">
        <ele>216.42</ele>
        <time>2022-01-23T09:50:30Z</time>
      </trkpt>
      <trkpt lat="47.7268" lon="6.03775">
        <ele>216.57</ele>
        <time>2022-01-23T09:50:36Z</time>
      </trkpt>
      <trkpt lat="47.72694" lon="6.03753">
        <ele>215.7</ele>
        <time>2022-01-23T09:50:40Z</time>
      </trkpt>
      <trkpt lat="47.72708" lon="6.0373">
        <ele>215.45</ele>
        <time>2022-01-23T09:50:44Z</time>
      </trkpt>
      <trkpt lat="47.72721" lon="6.03706">
        <ele>216.65</ele>
        <time>2022-01-23T09:50:50Z</time>
      </trkpt>
      <trkpt lat="47.72732" lon="6.03684">
        <ele>217.02</ele>
        <time>2022-01-23T09:50:56Z</time>
      </trkpt>
      <trkpt lat="47.72744" lon="6.03661">
        <ele>218.28</ele>
        <time>2022-01-23T09:51:03Z</time>
      </trkpt>
      <trkpt lat="47.72755" lon="6.03639">
        <ele>220.76</ele>
        <time>2022-01-23T09:51:09Z</time>
      </trkpt>
      <trkpt lat="47.72771" lon="6.03624">
        <ele>220.13</ele>
        <time>2022-01-23T09:51:12Z</time>
      </trkpt>
      <trkpt lat="47.72788" lon="6.0361">
        <ele>219.64</ele>
        <time>2022-01-23T09:51:16Z</time>
      </trkpt>
      <trkpt lat="47.72805" lon="6.03595">
        <ele>220.59</ele>
        <time>2022-01-23T09:51:21Z</time>
      </trkpt>
      <trkpt lat="47.72825" lon="6.03592">
        <ele>222.16</ele>
        <time>2022-01-23T09:51:27Z</time>
      </trkpt>
      <trkpt lat="47.72839" lon="6.03575">
        <ele>222.64</ele>
        <time>2022-01-23T09:51:32Z</time>
      </trkpt>
      <trkpt lat="47.72844" lon="6.03547">
        <ele>222.79</ele>
        <time>2022-01-23T09:51:36Z</time>
      </trkpt>
      <trkpt lat="47.72844" lon="6.03515">
        <ele>223.43</ele>
        <time>2022-01-23T09:51:40Z</time>
      </trkpt>
      <trkpt lat="47.72839" lon="6.03489">
        <ele>223.37</ele>
        <time>2022-01-23T09:51:44Z</time>
      </trkpt>
      <trkpt lat="47.72836" lon="6.03457">
        <ele>222.85</ele>
        <time>2022-01-23T09:51:48Z</time>
      </trkpt>
      <trkpt lat="47.72827" lon="6.03431">
        <ele>221.84</ele>
        <time>2022-01-23T09:51:53Z</time>
      </trkpt>
      <trkpt lat="47.72824" lon="6.034">
        <ele>221.08</ele>
        <time>2022-01-23T09:51:57Z</time>
      </trkpt>
      <trkpt lat="47.72815" lon="6.03372">
        <ele>219.91</ele>
        <time>2022-01-23T09:52:02Z</time>
      </trkpt>
      <trkpt lat="47.7282" lon="6.03341">
        <ele>219.7</ele>
        <time>2022-01-23T09:52:06Z</time>
      </trkpt>
      <trkpt lat="47.72829" lon="6.03315">
        <ele>219.41</ele>
        <time>2022-01-23T09:52:09Z</time>
      </trkpt>
      <trkpt lat="47.72837" lon="6.03286">
        <ele>219.48</ele>
        <time>2022-01-23T09:52:14Z</time>
      </trkpt>
      <trkpt lat="47.72843" lon="6.0326">
        <ele>219.68</ele>
        <time>2022-01-23T09:52:18Z</time>
      </trkpt>
      <trkpt lat="47.72851" lon="6.03232">
        <ele>220.09</ele>
        <time>2022-01-23T09:52:23Z</time>
      </trkpt>
      <trkpt lat="47.7286" lon="6.03205">
        <ele>221.57</ele>
        <time>2022-01-23T09:52:29Z</time>
      </trkpt>
      <trkpt lat="47.72867" lon="6.03176">
        <ele>223.09</ele>
        <time>2022-01-23T09:52:36Z</time>
      </trkpt>
      <trkpt lat="47.72876" lon="6.03151">
        <ele>224.31</ele>
        <time>2022-01-23T09:52:42Z</time>
      </trkpt>
      <trkpt lat="47.72883" lon="6.03121">
        <ele>223.77</ele>
        <time>2022-01-23T09:52:48Z</time>
      </trkpt>
      <trkpt lat="47.72891" lon="6.03097">
        <ele>222.51</ele>
        <time>2022-01-23T09:52:52Z</time>
      </trkpt>
      <trkpt lat="47.72897" lon="6.03067">
        <ele>221.37</ele>
        <time>2022-01-23T09:52:57Z</time>
      </trkpt>
      <trkpt lat="47.729" lon="6.03036">
        <ele>220.89</ele>
        <time>2022-01-23T09:53:02Z</time>
      </trkpt>
      <trkpt lat="47.72904" lon="6.03004">
        <ele>221.45</ele>
        <time>2022-01-23T09:53:07Z</time>
      </trkpt>
      <trkpt lat="47.72908" lon="6.02977">
        <ele>221.51</ele>
        <time>2022-01-23T09:53:11Z</time>
      </trkpt>
      <trkpt lat="47.72914" lon="6.0295">
        <ele>221.26</ele>
        <time>2022-01-23T09:53:16Z</time>
      </trkpt>
      <trkpt lat="47.72915" lon="6.02921">
        <ele>220.65</ele>
        <time>2022-01-23T09:53:22Z</time>
      </trkpt>
      <trkpt lat="47.72906" lon="6.02894">
        <ele>219.95</ele>
        <time>2022-01-23T09:53:30Z</time>
      </trkpt>
      <trkpt lat="47.72895" lon="6.02868">
        <ele>219.24</ele>
        <time>2022-01-23T09:53:36Z</time>
      </trkpt>
      <trkpt lat="47.72881" lon="6.02849">
        <ele>217.38</ele>
        <time>2022-01-23T09:53:45Z</time>
      </trkpt>
      <trkpt lat="47.72888" lon="6.0282">
        <ele>219.99</ele>
        <time>2022-01-23T09:53:56Z</time>
      </trkpt>
      <trkpt lat="47.72869" lon="6.02819">
        <ele>221.28</ele>
        <time>2022-01-23T09:54:04Z</time>
      </trkpt>
      <trkpt lat="47.72855" lon="6.02799">
        <ele>221.36</ele>
        <time>2022-01-23T09:54:17Z</time>
      </trkpt>
      <trkpt lat="47.72862" lon="6.02772">
        <ele>222.3</ele>
        <time>2022-01-23T09:54:27Z</time>
      </trkpt>
      <trkpt lat="47.72865" lon="6.02744">
        <ele>222.9</ele>
        <time>2022-01-23T09:54:36Z</time>
      </trkpt>
      <trkpt lat="47.72865" lon="6.02717">
        <ele>223.23</ele>
        <time>2022-01-23T09:54:45Z</time>
      </trkpt>
      <trkpt lat="47.72884" lon="6.02697">
        <ele>221.56</ele>
        <time>2022-01-23T09:54:49Z</time>
      </trkpt>
      <trkpt lat="47.72899" lon="6.02678">
        <ele>220.3</ele>
        <time>2022-01-23T09:54:51Z</time>
      </trkpt>
      <trkpt lat="47.72908" lon="6.02651">
        <ele>219.11</ele>
        <time>2022-01-23T09:54:53Z</time>
      </trkpt>
      <trkpt lat="47.72907" lon="6.02621">
        <ele>225.65</ele>
        <time>2022-01-23T09:55:18Z</time>
      </trkpt>
      <trkpt lat="47.72915" lon="6.02596">
        <ele>231.33</ele>
        <time>2022-01-23T09:55:34Z</time>
      </trkpt>
      <trkpt lat="47.72925" lon="6.02571">
        <ele>235.3</ele>
        <time>2022-01-23T09:55:40Z</time>
      </trkpt>
      <trkpt lat="47.72937" lon="6.02547">
        <ele>238.61</ele>
        <time>2022-01-23T09:55:47Z</time>
      </trkpt>
      <trkpt lat="47.7295" lon="6.02526">
        <ele>240.57</ele>
        <time>2022-01-23T09:55:52Z</time>
      </trkpt>
      <trkpt lat="47.72964" lon="6.02504">
        <ele>241.91</ele>
        <time>2022-01-23T09:55:58Z</time>
      </trkpt>
      <trkpt lat="47.72975" lon="6.0248">
        <ele>242.51</ele>
        <time>2022-01-23T09:56:05Z</time>
      </trkpt>
      <trkpt lat="47.7299" lon="6.02464">
        <ele>244.72</ele>
        <time>2022-01-23T09:56:11Z</time>
      </trkpt>
      <trkpt lat="47.73002" lon="6.02439">
        <ele>245.77</ele>
        <time>2022-01-23T09:56:18Z</time>
      </trkpt>
      <trkpt lat="47.73016" lon="6.02416">
        <ele>245.45</ele>
        <time>2022-01-23T09:56:25Z</time>
      </trkpt>
      <trkpt lat="47.73029" lon="6.0239">
        <ele>245.23</ele>
        <time>2022-01-23T09:56:32Z</time>
      </trkpt>
      <trkpt lat="47.73041" lon="6.02368">
        <ele>246.03</ele>
        <time>2022-01-23T09:56:37Z</time>
      </trkpt>
      <trkpt lat="47.73052" lon="6.02345">
        <ele>245.84</ele>
        <time>2022-01-23T09:56:44Z</time>
      </trkpt>
      <trkpt lat="47.73065" lon="6.02324">
        <ele>247.4</ele>
        <time>2022-01-23T09:56:51Z</time>
      </trkpt>
      <trkpt lat="47.73077" lon="6.02302">
        <ele>249.93</ele>
        <time>2022-01-23T09:56:57Z</time>
      </trkpt>
      <trkpt lat="47.73092" lon="6.02283">
        <ele>249.88</ele>
        <time>2022-01-23T09:57:02Z</time>
      </trkpt>
      <trkpt lat="47.73105" lon="6.02262">
        <ele>250.36</ele>
        <time>2022-01-23T09:57:07Z</time>
      </trkpt>
      <trkpt lat="47.73116" lon="6.0224">
        <ele>250.33</ele>
        <time>2022-01-23T09:57:12Z</time>
      </trkpt>
      <trkpt lat="47.7313" lon="6.02218">
        <ele>250.21</ele>
        <time>2022-01-23T09:57:17Z</time>
      </trkpt>
      <trkpt lat="47.73145" lon="6.02196">
        <ele>249.34</ele>
        <time>2022-01-23T09:57:22Z</time>
      </trkpt>
      <trkpt lat="47.7316" lon="6.02174">
        <ele>250.27</ele>
        <time>2022-01-23T09:57:27Z</time>
      </trkpt>
      <trkpt lat="47.73174" lon="6.02152">
        <ele>250.19</ele>
        <time>2022-01-23T09:57:32Z</time>
      </trkpt>
      <trkpt lat="47.73189" lon="6.02131">
        <ele>250.68</ele>
        <time>2022-01-23T09:57:37Z</time>
      </trkpt>
      <trkpt lat="47.73203" lon="6.02105">
        <ele>251.81</ele>
        <time>2022-01-23T09:57:43Z</time>
      </trkpt>
      <trkpt lat="47.73214" lon="6.02081">
        <ele>251.73</ele>
        <time>2022-01-23T09:57:48Z</time>
      </trkpt>
      <trkpt lat="47.73225" lon="6.02053">
        <ele>252</ele>
        <time>2022-01-23T09:57:53Z</time>
      </trkpt>
      <trkpt lat="47.73234" lon="6.02029">
        <ele>251.39</ele>
        <time>2022-01-23T09:57:57Z</time>
      </trkpt>
      <trkpt lat="47.73243" lon="6.02005">
        <ele>250.98</ele>
        <time>2022-01-23T09:58:02Z</time>
      </trkpt>
      <trkpt lat="47.73255" lon="6.01981">
        <ele>250.49</ele>
        <time>2022-01-23T09:58:08Z</time>
      </trkpt>
      <trkpt lat="47.73265" lon="6.01954">
        <ele>250.58</ele>
        <time>2022-01-23T09:58:13Z</time>
      </trkpt>
      <trkpt lat="47.73274" lon="6.01929">
        <ele>250.63</ele>
        <time>2022-01-23T09:58:18Z</time>
      </trkpt>
      <trkpt lat="47.73286" lon="6.01902">
        <ele>250.2</ele>
        <time>2022-01-23T09:58:23Z</time>
      </trkpt>
      <trkpt lat="47.73295" lon="6.01872">
        <ele>250.7</ele>
        <time>2022-01-23T09:58:28Z</time>
      </trkpt>
      <trkpt lat="47.733" lon="6.01841">
        <ele>251</ele>
        <time>2022-01-23T09:58:32Z</time>
      </trkpt>
      <trkpt lat="47.73305" lon="6.01809">
        <ele>250.52</ele>
        <time>2022-01-23T09:58:36Z</time>
      </trkpt>
      <trkpt lat="47.73308" lon="6.01781">
        <ele>249.97</ele>
        <time>2022-01-23T09:58:39Z</time>
      </trkpt>
      <trkpt lat="47.73314" lon="6.0175">
        <ele>249.01</ele>
        <time>2022-01-23T09:58:43Z</time>
      </trkpt>
      <trkpt lat="47.73319" lon="6.01716">
        <ele>249.81</ele>
        <time>2022-01-23T09:58:47Z</time>
      </trkpt>
      <trkpt lat="47.73327" lon="6.0169">
        <ele>250.54</ele>
        <time>2022-01-23T09:58:52Z</time>
      </trkpt>
      <trkpt lat="47.73336" lon="6.01664">
        <ele>250.28</ele>
        <time>2022-01-23T09:58:56Z</time>
      </trkpt>
      <trkpt lat="47.73342" lon="6.01635">
        <ele>249.99</ele>
        <time>2022-01-23T09:59:00Z</time>
      </trkpt>
      <trkpt lat="47.73343" lon="6.01606">
        <ele>250.56</ele>
        <time>2022-01-23T09:59:05Z</time>
      </trkpt>
      <trkpt lat="47.73344" lon="6.01575">
        <ele>250.74</ele>
        <time>2022-01-23T09:59:10Z</time>
      </trkpt>
      <trkpt lat="47.73345" lon="6.01544">
        <ele>250.59</ele>
        <time>2022-01-23T09:59:15Z</time>
      </trkpt>
      <trkpt lat="47.73344" lon="6.01515">
        <ele>250.71</ele>
        <time>2022-01-23T09:59:20Z</time>
      </trkpt>
      <trkpt lat="47.73341" lon="6.01488">
        <ele>250.17</ele>
        <time>2022-01-23T09:59:25Z</time>
      </trkpt>
      <trkpt lat="47.73342" lon="6.01456">
        <ele>249.38</ele>
        <time>2022-01-23T09:59:31Z</time>
      </trkpt>
      <trkpt lat="47.73339" lon="6.01428">
        <ele>248.6</ele>
        <time>2022-01-23T09:59:36Z</time>
      </trkpt>
      <trkpt lat="47.73342" lon="6.01402">
        <ele>250.5</ele>
        <time>2022-01-23T09:59:45Z</time>
      </trkpt>
      <trkpt lat="47.73344" lon="6.01373">
        <ele>251.43</ele>
        <time>2022-01-23T09:59:52Z</time>
      </trkpt>
      <trkpt lat="47.73349" lon="6.01347">
        <ele>252.41</ele>
        <time>2022-01-23T09:59:57Z</time>
      </trkpt>
      <trkpt lat="47.73352" lon="6.01314">
        <ele>252.3</ele>
        <time>2022-01-23T10:00:04Z</time>
      </trkpt>
      <trkpt lat="47.7335" lon="6.01282">
        <ele>252.23</ele>
        <time>2022-01-23T10:00:09Z</time>
      </trkpt>
      <trkpt lat="47.73346" lon="6.01255">
        <ele>252.15</ele>
        <time>2022-01-23T10:00:12Z</time>
      </trkpt>
      <trkpt lat="47.73339" lon="6.0122">
        <ele>252.02</ele>
        <time>2022-01-23T10:00:16Z</time>
      </trkpt>
      <trkpt lat="47.73335" lon="6.01191">
        <ele>251.85</ele>
        <time>2022-01-23T10:00:19Z</time>
      </trkpt>
      <trkpt lat="47.73338" lon="6.01159">
        <ele>251.41</ele>
        <time>2022-01-23T10:00:22Z</time>
      </trkpt>
      <trkpt lat="47.73343" lon="6.01129">
        <ele>251.58</ele>
        <time>2022-01-23T10:00:25Z</time>
      </trkpt>
      <trkpt lat="47.73356" lon="6.01094">
        <ele>253.07</ele>
        <time>2022-01-23T10:00:28Z</time>
      </trkpt>
      <trkpt lat="47.73367" lon="6.01064">
        <ele>254.17</ele>
        <time>2022-01-23T10:00:31Z</time>
      </trkpt>
      <trkpt lat="47.73377" lon="6.0104">
        <ele>254.18</ele>
        <time>2022-01-23T10:00:34Z</time>
      </trkpt>
      <trkpt lat="47.73389" lon="6.01011">
        <ele>254.67</ele>
        <time>2022-01-23T10:00:38Z</time>
      </trkpt>
      <trkpt lat="47.73397" lon="6.00982">
        <ele>254.71</ele>
        <time>2022-01-23T10:00:43Z</time>
      </trkpt>
      <trkpt lat="47.73401" lon="6.0095">
        <ele>254.34</ele>
        <time>2022-01-23T10:00:48Z</time>
      </trkpt>
      <trkpt lat="47.7341" lon="6.00925">
        <ele>255.24</ele>
        <time>2022-01-23T10:00:53Z</time>
      </trkpt>
      <trkpt lat="47.73421" lon="6.009">
        <ele>255.94</ele>
        <time>2022-01-23T10:00:57Z</time>
      </trkpt>
      <trkpt lat="47.73437" lon="6.00878">
        <ele>255.84</ele>
        <time>2022-01-23T10:01:01Z</time>
      </trkpt>
      <trkpt lat="47.73444" lon="6.00847">
        <ele>254.81</ele>
        <time>2022-01-23T10:01:06Z</time>
      </trkpt>
      <trkpt lat="47.73448" lon="6.00819">
        <ele>253.55</ele>
        <time>2022-01-23T10:01:11Z</time>
      </trkpt>
      <trkpt lat="47.73454" lon="6.0079">
        <ele>253.14</ele>
        <time>2022-01-23T10:01:16Z</time>
      </trkpt>
      <trkpt lat="47.73461" lon="6.00764">
        <ele>253.98</ele>
        <time>2022-01-23T10:01:22Z</time>
      </trkpt>
      <trkpt lat="47.73463" lon="6.00734">
        <ele>256.8</ele>
        <time>2022-01-23T10:01:28Z</time>
      </trkpt>
      <trkpt lat="47.73464" lon="6.00701">
        <ele>258.09</ele>
        <time>2022-01-23T10:01:32Z</time>
      </trkpt>
      <trkpt lat="47.73467" lon="6.00671">
        <ele>257.84</ele>
        <time>2022-01-23T10:01:36Z</time>
      </trkpt>
      <trkpt lat="47.73474" lon="6.00642">
        <ele>256.3</ele>
        <time>2022-01-23T10:01:41Z</time>
      </trkpt>
      <trkpt lat="47.73479" lon="6.00613">
        <ele>255.57</ele>
        <time>2022-01-23T10:01:45Z</time>
      </trkpt>
      <trkpt lat="47.73484" lon="6.00584">
        <ele>254.66</ele>
        <time>2022-01-23T10:01:50Z</time>
      </trkpt>
      <trkpt lat="47.73485" lon="6.00549">
        <ele>254.2</ele>
        <time>2022-01-23T10:01:54Z</time>
      </trkpt>
      <trkpt lat="47.73484" lon="6.00521">
        <ele>254.95</ele>
        <time>2022-01-23T10:01:59Z</time>
      </trkpt>
      <trkpt lat="47.7349" lon="6.00493">
        <ele>256.26</ele>
        <time>2022-01-23T10:02:06Z</time>
      </trkpt>
      <trkpt lat="47.73496" lon="6.00467">
        <ele>256.71</ele>
        <time>2022-01-23T10:02:14Z</time>
      </trkpt>
      <trkpt lat="47.73502" lon="6.00442">
        <ele>258.25</ele>
        <time>2022-01-23T10:02:21Z</time>
      </trkpt>
      <trkpt lat="47.73507" lon="6.00415">
        <ele>262</ele>
        <time>2022-01-23T10:02:30Z</time>
      </trkpt>
      <trkpt lat="47.73511" lon="6.00386">
        <ele>263.97</ele>
        <time>2022-01-23T10:02:38Z</time>
      </trkpt>
      <trkpt lat="47.73514" lon="6.00358">
        <ele>264.96</ele>
        <time>2022-01-23T10:02:44Z</time>
      </trkpt>
      <trkpt lat="47.73522" lon="6.00329">
        <ele>265.29</ele>
        <time>2022-01-23T10:02:51Z</time>
      </trkpt>
      <trkpt lat="47.73537" lon="6.00307">
        <ele>264.48</ele>
        <time>2022-01-23T10:02:58Z</time>
      </trkpt>
      <trkpt lat="47.73554" lon="6.00297">
        <ele>263.89</ele>
        <time>2022-01-23T10:03:05Z</time>
      </trkpt>
      <trkpt lat="47.73573" lon="6.00299">
        <ele>263.88</ele>
        <time>2022-01-23T10:03:13Z</time>
      </trkpt>
      <trkpt lat="47.73597" lon="6.00293">
        <ele>260.98</ele>
        <time>2022-01-23T10:03:19Z</time>
      </trkpt>
      <trkpt lat="47.73616" lon="6.0029">
        <ele>260.65</ele>
        <time>2022-01-23T10:03:23Z</time>
      </trkpt>
      <trkpt lat="47.73597" lon="6.0029">
        <ele>261.23</ele>
        <time>2022-01-23T10:03:35Z</time>
      </trkpt>
      <trkpt lat="47.73615" lon="6.00279">
        <ele>258.45</ele>
        <time>2022-01-23T10:05:19Z</time>
      </trkpt>
      <trkpt lat="47.73628" lon="6.00256">
        <ele>258.34</ele>
        <time>2022-01-23T10:05:26Z</time>
      </trkpt>
      <trkpt lat="47.73642" lon="6.00237">
        <ele>258.65</ele>
        <time>2022-01-23T10:05:31Z</time>
      </trkpt>
      <trkpt lat="47.73659" lon="6.0022">
        <ele>257.94</ele>
        <time>2022-01-23T10:05:36Z</time>
      </trkpt>
      <trkpt lat="47.73664" lon="6.00193">
        <ele>257.55</ele>
        <time>2022-01-23T10:05:42Z</time>
      </trkpt>
      <trkpt lat="47.73678" lon="6.00175">
        <ele>257.3</ele>
        <time>2022-01-23T10:05:51Z</time>
      </trkpt>
      <trkpt lat="47.73692" lon="6.00152">
        <ele>258.02</ele>
        <time>2022-01-23T10:06:00Z</time>
      </trkpt>
      <trkpt lat="47.73702" lon="6.00129">
        <ele>257.44</ele>
        <time>2022-01-23T10:06:06Z</time>
      </trkpt>
      <trkpt lat="47.73705" lon="6.00098">
        <ele>255.66</ele>
        <time>2022-01-23T10:06:13Z</time>
      </trkpt>
      <trkpt lat="47.73712" lon="6.00071">
        <ele>254.26</ele>
        <time>2022-01-23T10:06:19Z</time>
      </trkpt>
      <trkpt lat="47.73716" lon="6.00043">
        <ele>256.17</ele>
        <time>2022-01-23T10:06:29Z</time>
      </trkpt>
      <trkpt lat="47.73723" lon="6.00016">
        <ele>258.57</ele>
        <time>2022-01-23T10:06:37Z</time>
      </trkpt>
      <trkpt lat="47.73734" lon="5.99994">
        <ele>261.17</ele>
        <time>2022-01-23T10:06:48Z</time>
      </trkpt>
      <trkpt lat="47.73738" lon="5.99966">
        <ele>262.06</ele>
        <time>2022-01-23T10:06:58Z</time>
      </trkpt>
      <trkpt lat="47.73738" lon="5.99937">
        <ele>263.13</ele>
        <time>2022-01-23T10:07:04Z</time>
      </trkpt>
      <trkpt lat="47.73745" lon="5.99908">
        <ele>265.38</ele>
        <time>2022-01-23T10:07:16Z</time>
      </trkpt>
      <trkpt lat="47.73744" lon="5.99879">
        <ele>266.84</ele>
        <time>2022-01-23T10:07:26Z</time>
      </trkpt>
      <trkpt lat="47.7375" lon="5.99854">
        <ele>266.83</ele>
        <time>2022-01-23T10:07:38Z</time>
      </trkpt>
      <trkpt lat="47.73753" lon="5.99826">
        <ele>266.95</ele>
        <time>2022-01-23T10:07:48Z</time>
      </trkpt>
      <trkpt lat="47.73748" lon="5.99799">
        <ele>270.37</ele>
        <time>2022-01-23T10:08:05Z</time>
      </trkpt>
      <trkpt lat="47.73749" lon="5.99769">
        <ele>271.11</ele>
        <time>2022-01-23T10:08:12Z</time>
      </trkpt>
      <trkpt lat="47.73741" lon="5.99744">
        <ele>273.42</ele>
        <time>2022-01-23T10:08:22Z</time>
      </trkpt>
      <trkpt lat="47.73732" lon="5.99719">
        <ele>276.62</ele>
        <time>2022-01-23T10:08:31Z</time>
      </trkpt>
      <trkpt lat="47.73724" lon="5.99694">
        <ele>281.48</ele>
        <time>2022-01-23T10:08:40Z</time>
      </trkpt>
      <trkpt lat="47.73716" lon="5.99667">
        <ele>286.54</ele>
        <time>2022-01-23T10:08:52Z</time>
      </trkpt>
      <trkpt lat="47.73716" lon="5.99637">
        <ele>287.6</ele>
        <time>2022-01-23T10:08:59Z</time>
      </trkpt>
      <trkpt lat="47.7371" lon="5.99604">
        <ele>286.71</ele>
        <time>2022-01-23T10:09:11Z</time>
      </trkpt>
      <trkpt lat="47.73718" lon="5.99579">
        <ele>290.47</ele>
        <time>2022-01-23T10:09:21Z</time>
      </trkpt>
      <trkpt lat="47.73725" lon="5.99554">
        <ele>291.56</ele>
        <time>2022-01-23T10:09:34Z</time>
      </trkpt>
      <trkpt lat="47.73735" lon="5.99531">
        <ele>294.39</ele>
        <time>2022-01-23T10:09:45Z</time>
      </trkpt>
      <trkpt lat="47.73751" lon="5.99513">
        <ele>298.58</ele>
        <time>2022-01-23T10:09:55Z</time>
      </trkpt>
      <trkpt lat="47.73767" lon="5.995">
        <ele>298.24</ele>
        <time>2022-01-23T10:10:04Z</time>
      </trkpt>
      <trkpt lat="47.73788" lon="5.99504">
        <ele>299.2</ele>
        <time>2022-01-23T10:10:17Z</time>
      </trkpt>
      <trkpt lat="47.73807" lon="5.99509">
        <ele>298.82</ele>
        <time>2022-01-23T10:10:27Z</time>
      </trkpt>
      <trkpt lat="47.73827" lon="5.99511">
        <ele>300.26</ele>
        <time>2022-01-23T10:10:36Z</time>
      </trkpt>
      <trkpt lat="47.73845" lon="5.99505">
        <ele>300.53</ele>
        <time>2022-01-23T10:10:46Z</time>
      </trkpt>
      <trkpt lat="47.73864" lon="5.995">
        <ele>303.92</ele>
        <time>2022-01-23T10:10:59Z</time>
      </trkpt>
      <trkpt lat="47.7389" lon="5.99498">
        <ele>307.15</ele>
        <time>2022-01-23T10:11:15Z</time>
      </trkpt>
      <trkpt lat="47.73909" lon="5.99496">
        <ele>309.96</ele>
        <time>2022-01-23T10:11:23Z</time>
      </trkpt>
      <trkpt lat="47.73937" lon="5.99498">
        <ele>310.5</ele>
        <time>2022-01-23T10:11:41Z</time>
      </trkpt>
      <trkpt lat="47.73954" lon="5.99509">
        <ele>311.21</ele>
        <time>2022-01-23T10:11:48Z</time>
      </trkpt>
      <trkpt lat="47.73973" lon="5.99519">
        <ele>313.19</ele>
        <time>2022-01-23T10:11:57Z</time>
      </trkpt>
      <trkpt lat="47.73987" lon="5.99539">
        <ele>313.31</ele>
        <time>2022-01-23T10:12:12Z</time>
      </trkpt>
      <trkpt lat="47.74005" lon="5.99546">
        <ele>312</ele>
        <time>2022-01-23T10:12:21Z</time>
      </trkpt>
      <trkpt lat="47.74039" lon="5.99553">
        <ele>311.65</ele>
        <time>2022-01-23T10:12:40Z</time>
      </trkpt>
      <trkpt lat="47.74057" lon="5.99538">
        <ele>312.35</ele>
        <time>2022-01-23T10:12:48Z</time>
      </trkpt>
      <trkpt lat="47.74072" lon="5.99522">
        <ele>313.38</ele>
        <time>2022-01-23T10:12:53Z</time>
      </trkpt>
      <trkpt lat="47.7409" lon="5.99508">
        <ele>313.76</ele>
        <time>2022-01-23T10:13:02Z</time>
      </trkpt>
      <trkpt lat="47.74106" lon="5.99492">
        <ele>313.39</ele>
        <time>2022-01-23T10:13:09Z</time>
      </trkpt>
      <trkpt lat="47.74123" lon="5.99476">
        <ele>314.61</ele>
        <time>2022-01-23T10:13:17Z</time>
      </trkpt>
      <trkpt lat="47.74138" lon="5.99456">
        <ele>316.63</ele>
        <time>2022-01-23T10:13:25Z</time>
      </trkpt>
      <trkpt lat="47.74155" lon="5.99441">
        <ele>316.52</ele>
        <time>2022-01-23T10:13:34Z</time>
      </trkpt>
      <trkpt lat="47.7417" lon="5.99426">
        <ele>314.46</ele>
        <time>2022-01-23T10:13:41Z</time>
      </trkpt>
      <trkpt lat="47.74184" lon="5.99406">
        <ele>315.5</ele>
        <time>2022-01-23T10:13:49Z</time>
      </trkpt>
      <trkpt lat="47.74198" lon="5.99387">
        <ele>316.15</ele>
        <time>2022-01-23T10:13:56Z</time>
      </trkpt>
      <trkpt lat="47.74212" lon="5.99367">
        <ele>316.96</ele>
        <time>2022-01-23T10:14:04Z</time>
      </trkpt>
      <trkpt lat="47.74223" lon="5.99346">
        <ele>319.3</ele>
        <time>2022-01-23T10:14:11Z</time>
      </trkpt>
      <trkpt lat="47.74233" lon="5.9932">
        <ele>320.11</ele>
        <time>2022-01-23T10:14:19Z</time>
      </trkpt>
      <trkpt lat="47.74247" lon="5.99299">
        <ele>322.12</ele>
        <time>2022-01-23T10:14:27Z</time>
      </trkpt>
      <trkpt lat="47.74262" lon="5.99282">
        <ele>320.46</ele>
        <time>2022-01-23T10:14:34Z</time>
      </trkpt>
      <trkpt lat="47.74275" lon="5.99264">
        <ele>321.09</ele>
        <time>2022-01-23T10:14:42Z</time>
      </trkpt>
      <trkpt lat="47.74288" lon="5.9924">
        <ele>321.22</ele>
        <time>2022-01-23T10:14:50Z</time>
      </trkpt>
      <trkpt lat="47.74303" lon="5.99218">
        <ele>323.81</ele>
        <time>2022-01-23T10:14:59Z</time>
      </trkpt>
      <trkpt lat="47.74314" lon="5.99196">
        <ele>325.13</ele>
        <time>2022-01-23T10:15:07Z</time>
      </trkpt>
      <trkpt lat="47.74322" lon="5.99173">
        <ele>326.34</ele>
        <time>2022-01-23T10:15:14Z</time>
      </trkpt>
      <trkpt lat="47.74328" lon="5.99146">
        <ele>326.44</ele>
        <time>2022-01-23T10:15:20Z</time>
      </trkpt>
      <trkpt lat="47.7434" lon="5.99124">
        <ele>328.81</ele>
        <time>2022-01-23T10:15:30Z</time>
      </trkpt>
      <trkpt lat="47.74348" lon="5.99099">
        <ele>330.7</ele>
        <time>2022-01-23T10:15:39Z</time>
      </trkpt>
      <trkpt lat="47.7436" lon="5.99078">
        <ele>331.04</ele>
        <time>2022-01-23T10:15:49Z</time>
      </trkpt>
      <trkpt lat="47.74373" lon="5.99041">
        <ele>332.2</ele>
        <time>2022-01-23T10:16:04Z</time>
      </trkpt>
      <trkpt lat="47.74386" lon="5.99022">
        <ele>338.21</ele>
        <time>2022-01-23T10:16:14Z</time>
      </trkpt>
      <trkpt lat="47.74421" lon="5.99049">
        <ele>340.5</ele>
        <time>2022-01-23T10:16:42Z</time>
      </trkpt>
      <trkpt lat="47.74439" lon="5.9906">
        <ele>342</ele>
        <time>2022-01-23T10:16:52Z</time>
      </trkpt>
      <trkpt lat="47.7446" lon="5.99065">
        <ele>342.9</ele>
        <time>2022-01-23T10:17:04Z</time>
      </trkpt>
      <trkpt lat="47.7448" lon="5.99062">
        <ele>343.21</ele>
        <time>2022-01-23T10:17:12Z</time>
      </trkpt>
      <trkpt lat="47.74499" lon="5.9906">
        <ele>344.06</ele>
        <time>2022-01-23T10:17:23Z</time>
      </trkpt>
      <trkpt lat="47.74523" lon="5.99034">
        <ele>343.7</ele>
        <time>2022-01-23T10:17:33Z</time>
      </trkpt>
      <trkpt lat="47.74539" lon="5.99017">
        <ele>342.83</ele>
        <time>2022-01-23T10:17:40Z</time>
      </trkpt>
      <trkpt lat="47.74555" lon="5.99005">
        <ele>343.06</ele>
        <time>2022-01-23T10:17:48Z</time>
      </trkpt>
      <trkpt lat="47.74568" lon="5.98983">
        <ele>345.3</ele>
        <time>2022-01-23T10:17:57Z</time>
      </trkpt>
      <trkpt lat="47.74584" lon="5.98967">
        <ele>346.68</ele>
        <time>2022-01-23T10:18:04Z</time>
      </trkpt>
      <trkpt lat="47.74588" lon="5.9894">
        <ele>348.64</ele>
        <time>2022-01-23T10:18:15Z</time>
      </trkpt>
      <trkpt lat="47.74573" lon="5.98924">
        <ele>349.94</ele>
        <time>2022-01-23T10:18:22Z</time>
      </trkpt>
      <trkpt lat="47.74556" lon="5.98911">
        <ele>350.18</ele>
        <time>2022-01-23T10:18:28Z</time>
      </trkpt>
      <trkpt lat="47.74544" lon="5.98887">
        <ele>351.12</ele>
        <time>2022-01-23T10:18:39Z</time>
      </trkpt>
      <trkpt lat="47.74534" lon="5.98864">
        <ele>351.77</ele>
        <time>2022-01-23T10:18:48Z</time>
      </trkpt>
      <trkpt lat="47.74516" lon="5.98843">
        <ele>352.05</ele>
        <time>2022-01-23T10:18:58Z</time>
      </trkpt>
      <trkpt lat="47.745" lon="5.98823">
        <ele>354.61</ele>
        <time>2022-01-23T10:19:06Z</time>
      </trkpt>
      <trkpt lat="47.74492" lon="5.98799">
        <ele>357.16</ele>
        <time>2022-01-23T10:19:12Z</time>
      </trkpt>
      <trkpt lat="47.74476" lon="5.98779">
        <ele>359.62</ele>
        <time>2022-01-23T10:19:21Z</time>
      </trkpt>
      <trkpt lat="47.74459" lon="5.98768">
        <ele>360.08</ele>
        <time>2022-01-23T10:19:27Z</time>
      </trkpt>
      <trkpt lat="47.74443" lon="5.98754">
        <ele>358.38</ele>
        <time>2022-01-23T10:19:35Z</time>
      </trkpt>
      <trkpt lat="47.7444" lon="5.98727">
        <ele>357.71</ele>
        <time>2022-01-23T10:19:45Z</time>
      </trkpt>
      <trkpt lat="47.74439" lon="5.98697">
        <ele>358.95</ele>
        <time>2022-01-23T10:19:52Z</time>
      </trkpt>
      <trkpt lat="47.74419" lon="5.98693">
        <ele>359.4</ele>
        <time>2022-01-23T10:19:55Z</time>
      </trkpt>
      <trkpt lat="47.74407" lon="5.9867">
        <ele>360.43</ele>
        <time>2022-01-23T10:20:05Z</time>
      </trkpt>
      <trkpt lat="47.74391" lon="5.9865">
        <ele>359.06</ele>
        <time>2022-01-23T10:20:13Z</time>
      </trkpt>
      <trkpt lat="47.74378" lon="5.9863">
        <ele>359.05</ele>
        <time>2022-01-23T10:20:18Z</time>
      </trkpt>
      <trkpt lat="47.74365" lon="5.98605">
        <ele>361.45</ele>
        <time>2022-01-23T10:20:25Z</time>
      </trkpt>
      <trkpt lat="47.74348" lon="5.9859">
        <ele>363.01</ele>
        <time>2022-01-23T10:20:33Z</time>
      </trkpt>
      <trkpt lat="47.74334" lon="5.98569">
        <ele>361.97</ele>
        <time>2022-01-23T10:20:41Z</time>
      </trkpt>
      <trkpt lat="47.74315" lon="5.98556">
        <ele>361.8</ele>
        <time>2022-01-23T10:20:48Z</time>
      </trkpt>
      <trkpt lat="47.74297" lon="5.98545">
        <ele>361.56</ele>
        <time>2022-01-23T10:20:53Z</time>
      </trkpt>
      <trkpt lat="47.74281" lon="5.98532">
        <ele>361.67</ele>
        <time>2022-01-23T10:21:00Z</time>
      </trkpt>
      <trkpt lat="47.74266" lon="5.98514">
        <ele>362.83</ele>
        <time>2022-01-23T10:21:07Z</time>
      </trkpt>
      <trkpt lat="47.74246" lon="5.98509">
        <ele>362.44</ele>
        <time>2022-01-23T10:21:14Z</time>
      </trkpt>
      <trkpt lat="47.74229" lon="5.98492">
        <ele>362.67</ele>
        <time>2022-01-23T10:21:21Z</time>
      </trkpt>
      <trkpt lat="47.74209" lon="5.98489">
        <ele>362.7</ele>
        <time>2022-01-23T10:21:28Z</time>
      </trkpt>
      <trkpt lat="47.7419" lon="5.98481">
        <ele>364.02</ele>
        <time>2022-01-23T10:21:36Z</time>
      </trkpt>
      <trkpt lat="47.74176" lon="5.98461">
        <ele>364.77</ele>
        <time>2022-01-23T10:21:44Z</time>
      </trkpt>
      <trkpt lat="47.74157" lon="5.98457">
        <ele>364.39</ele>
        <time>2022-01-23T10:21:51Z</time>
      </trkpt>
      <trkpt lat="47.74143" lon="5.98438">
        <ele>365.45</ele>
        <time>2022-01-23T10:21:56Z</time>
      </trkpt>
      <trkpt lat="47.74132" lon="5.98411">
        <ele>365.12</ele>
        <time>2022-01-23T10:22:01Z</time>
      </trkpt>
      <trkpt lat="47.74117" lon="5.98393">
        <ele>364.58</ele>
        <time>2022-01-23T10:22:05Z</time>
      </trkpt>
      <trkpt lat="47.74104" lon="5.98367">
        <ele>364.84</ele>
        <time>2022-01-23T10:22:08Z</time>
      </trkpt>
      <trkpt lat="47.74081" lon="5.9832">
        <ele>365</ele>
        <time>2022-01-23T10:22:09Z</time>
      </trkpt>
      <trkpt lat="47.74063" lon="5.98332">
        <ele>366.31</ele>
        <time>2022-01-23T10:22:16Z</time>
      </trkpt>
      <trkpt lat="47.74043" lon="5.98316">
        <ele>366.61</ele>
        <time>2022-01-23T10:22:21Z</time>
      </trkpt>
      <trkpt lat="47.74027" lon="5.98299">
        <ele>367.38</ele>
        <time>2022-01-23T10:22:24Z</time>
      </trkpt>
      <trkpt lat="47.74013" lon="5.98281">
        <ele>368.6</ele>
        <time>2022-01-23T10:22:27Z</time>
      </trkpt>
      <trkpt lat="47.73996" lon="5.98262">
        <ele>368.42</ele>
        <time>2022-01-23T10:22:30Z</time>
      </trkpt>
      <trkpt lat="47.73978" lon="5.98246">
        <ele>368.01</ele>
        <time>2022-01-23T10:22:33Z</time>
      </trkpt>
      <trkpt lat="47.73957" lon="5.98225">
        <ele>366.67</ele>
        <time>2022-01-23T10:22:36Z</time>
      </trkpt>
      <trkpt lat="47.73937" lon="5.98198">
        <ele>366.12</ele>
        <time>2022-01-23T10:22:39Z</time>
      </trkpt>
      <trkpt lat="47.73922" lon="5.98176">
        <ele>366.49</ele>
        <time>2022-01-23T10:22:41Z</time>
      </trkpt>
      <trkpt lat="47.73908" lon="5.98151">
        <ele>367.04</ele>
        <time>2022-01-23T10:22:43Z</time>
      </trkpt>
      <trkpt lat="47.73891" lon="5.98126">
        <ele>367.29</ele>
        <time>2022-01-23T10:22:46Z</time>
      </trkpt>
      <trkpt lat="47.73868" lon="5.98119">
        <ele>367.54</ele>
        <time>2022-01-23T10:22:51Z</time>
      </trkpt>
      <trkpt lat="47.73849" lon="5.98116">
        <ele>367.58</ele>
        <time>2022-01-23T10:22:55Z</time>
      </trkpt>
      <trkpt lat="47.73831" lon="5.98118">
        <ele>367.77</ele>
        <time>2022-01-23T10:22:59Z</time>
      </trkpt>
      <trkpt lat="47.73812" lon="5.98109">
        <ele>368.51</ele>
        <time>2022-01-23T10:23:03Z</time>
      </trkpt>
      <trkpt lat="47.73796" lon="5.98094">
        <ele>367.75</ele>
        <time>2022-01-23T10:23:06Z</time>
      </trkpt>
      <trkpt lat="47.73775" lon="5.98085">
        <ele>366.28</ele>
        <time>2022-01-23T10:23:10Z</time>
      </trkpt>
      <trkpt lat="47.73757" lon="5.98071">
        <ele>366.48</ele>
        <time>2022-01-23T10:23:13Z</time>
      </trkpt>
      <trkpt lat="47.73739" lon="5.98058">
        <ele>366.97</ele>
        <time>2022-01-23T10:23:16Z</time>
      </trkpt>
      <trkpt lat="47.73723" lon="5.98046">
        <ele>367.32</ele>
        <time>2022-01-23T10:23:19Z</time>
      </trkpt>
      <trkpt lat="47.73703" lon="5.98031">
        <ele>367.57</ele>
        <time>2022-01-23T10:23:23Z</time>
      </trkpt>
      <trkpt lat="47.73683" lon="5.98025">
        <ele>367.96</ele>
        <time>2022-01-23T10:23:27Z</time>
      </trkpt>
      <trkpt lat="47.73665" lon="5.98019">
        <ele>366.73</ele>
        <time>2022-01-23T10:23:32Z</time>
      </trkpt>
      <trkpt lat="47.73645" lon="5.98008">
        <ele>366.24</ele>
        <time>2022-01-23T10:23:37Z</time>
      </trkpt>
      <trkpt lat="47.73624" lon="5.97999">
        <ele>363.85</ele>
        <time>2022-01-23T10:23:42Z</time>
      </trkpt>
      <trkpt lat="47.73602" lon="5.98">
        <ele>363.1</ele>
        <time>2022-01-23T10:23:47Z</time>
      </trkpt>
      <trkpt lat="47.73586" lon="5.98016">
        <ele>362.48</ele>
        <time>2022-01-23T10:23:50Z</time>
      </trkpt>
      <trkpt lat="47.73564" lon="5.98025">
        <ele>361.32</ele>
        <time>2022-01-23T10:23:54Z</time>
      </trkpt>
      <trkpt lat="47.73545" lon="5.98035">
        <ele>359.19</ele>
        <time>2022-01-23T10:23:58Z</time>
      </trkpt>
      <trkpt lat="47.73527" lon="5.98047">
        <ele>357.82</ele>
        <time>2022-01-23T10:24:01Z</time>
      </trkpt>
      <trkpt lat="47.73509" lon="5.98059">
        <ele>356.56</ele>
        <time>2022-01-23T10:24:04Z</time>
      </trkpt>
      <trkpt lat="47.73489" lon="5.98063">
        <ele>354.44</ele>
        <time>2022-01-23T10:24:08Z</time>
      </trkpt>
      <trkpt lat="47.73469" lon="5.98076">
        <ele>352.39</ele>
        <time>2022-01-23T10:24:11Z</time>
      </trkpt>
      <trkpt lat="47.73451" lon="5.98094">
        <ele>351.63</ele>
        <time>2022-01-23T10:24:14Z</time>
      </trkpt>
      <trkpt lat="47.73434" lon="5.98109">
        <ele>351</ele>
        <time>2022-01-23T10:24:17Z</time>
      </trkpt>
      <trkpt lat="47.73417" lon="5.98124">
        <ele>350.89</ele>
        <time>2022-01-23T10:24:20Z</time>
      </trkpt>
      <trkpt lat="47.73398" lon="5.98143">
        <ele>350.91</ele>
        <time>2022-01-23T10:24:22Z</time>
      </trkpt>
      <trkpt lat="47.73376" lon="5.98154">
        <ele>350.1</ele>
        <time>2022-01-23T10:24:25Z</time>
      </trkpt>
      <trkpt lat="47.73356" lon="5.98163">
        <ele>348.94</ele>
        <time>2022-01-23T10:24:28Z</time>
      </trkpt>
      <trkpt lat="47.73336" lon="5.98167">
        <ele>347.66</ele>
        <time>2022-01-23T10:24:32Z</time>
      </trkpt>
      <trkpt lat="47.7332" lon="5.98186">
        <ele>347.49</ele>
        <time>2022-01-23T10:24:35Z</time>
      </trkpt>
      <trkpt lat="47.73301" lon="5.98173">
        <ele>347.84</ele>
        <time>2022-01-23T10:24:39Z</time>
      </trkpt>
      <trkpt lat="47.73287" lon="5.98157">
        <ele>348</ele>
        <time>2022-01-23T10:24:43Z</time>
      </trkpt>
      <trkpt lat="47.7327" lon="5.98148">
        <ele>348.23</ele>
        <time>2022-01-23T10:24:49Z</time>
      </trkpt>
      <trkpt lat="47.73263" lon="5.98122">
        <ele>345.82</ele>
        <time>2022-01-23T10:24:53Z</time>
      </trkpt>
      <trkpt lat="47.73268" lon="5.98154">
        <ele>341.86</ele>
        <time>2022-01-23T10:24:59Z</time>
      </trkpt>
      <trkpt lat="47.73265" lon="5.98181">
        <ele>341.03</ele>
        <time>2022-01-23T10:25:01Z</time>
      </trkpt>
      <trkpt lat="47.73263" lon="5.98208">
        <ele>340.35</ele>
        <time>2022-01-23T10:25:03Z</time>
      </trkpt>
      <trkpt lat="47.73256" lon="5.98241">
        <ele>339.77</ele>
        <time>2022-01-23T10:25:05Z</time>
      </trkpt>
      <trkpt lat="47.7325" lon="5.98274">
        <ele>339.26</ele>
        <time>2022-01-23T10:25:07Z</time>
      </trkpt>
      <trkpt lat="47.73247" lon="5.98311">
        <ele>337.78</ele>
        <time>2022-01-23T10:25:09Z</time>
      </trkpt>
      <trkpt lat="47.73244" lon="5.98346">
        <ele>334.63</ele>
        <time>2022-01-23T10:25:11Z</time>
      </trkpt>
      <trkpt lat="47.73244" lon="5.98383">
        <ele>330.82</ele>
        <time>2022-01-23T10:25:13Z</time>
      </trkpt>
      <trkpt lat="47.73247" lon="5.98417">
        <ele>328.82</ele>
        <time>2022-01-23T10:25:15Z</time>
      </trkpt>
      <trkpt lat="47.73252" lon="5.98449">
        <ele>326.74</ele>
        <time>2022-01-23T10:25:17Z</time>
      </trkpt>
      <trkpt lat="47.73262" lon="5.98478">
        <ele>323.9</ele>
        <time>2022-01-23T10:25:19Z</time>
      </trkpt>
      <trkpt lat="47.73279" lon="5.98509">
        <ele>322.99</ele>
        <time>2022-01-23T10:25:21Z</time>
      </trkpt>
      <trkpt lat="47.73334" lon="5.98621">
        <ele>325.26</ele>
        <time>2022-01-23T10:25:28Z</time>
      </trkpt>
      <trkpt lat="47.73344" lon="5.98653">
        <ele>325.08</ele>
        <time>2022-01-23T10:25:30Z</time>
      </trkpt>
      <trkpt lat="47.73356" lon="5.98687">
        <ele>324.21</ele>
        <time>2022-01-23T10:25:32Z</time>
      </trkpt>
      <trkpt lat="47.73362" lon="5.98724">
        <ele>323.34</ele>
        <time>2022-01-23T10:25:34Z</time>
      </trkpt>
      <trkpt lat="47.73366" lon="5.98757">
        <ele>321.05</ele>
        <time>2022-01-23T10:25:36Z</time>
      </trkpt>
      <trkpt lat="47.73363" lon="5.98788">
        <ele>315.68</ele>
        <time>2022-01-23T10:25:39Z</time>
      </trkpt>
      <trkpt lat="47.7337" lon="5.98813">
        <ele>310.77</ele>
        <time>2022-01-23T10:25:42Z</time>
      </trkpt>
      <trkpt lat="47.73387" lon="5.98825">
        <ele>309.48</ele>
        <time>2022-01-23T10:25:44Z</time>
      </trkpt>
      <trkpt lat="47.73405" lon="5.9885">
        <ele>307.09</ele>
        <time>2022-01-23T10:25:47Z</time>
      </trkpt>
      <trkpt lat="47.73411" lon="5.98879">
        <ele>304.56</ele>
        <time>2022-01-23T10:25:50Z</time>
      </trkpt>
      <trkpt lat="47.73418" lon="5.9891">
        <ele>303.88</ele>
        <time>2022-01-23T10:25:53Z</time>
      </trkpt>
      <trkpt lat="47.7342" lon="5.98941">
        <ele>301.77</ele>
        <time>2022-01-23T10:25:56Z</time>
      </trkpt>
      <trkpt lat="47.7341" lon="5.98963">
        <ele>298.48</ele>
        <time>2022-01-23T10:25:58Z</time>
      </trkpt>
      <trkpt lat="47.73402" lon="5.9899">
        <ele>295.62</ele>
        <time>2022-01-23T10:26:01Z</time>
      </trkpt>
      <trkpt lat="47.73398" lon="5.99018">
        <ele>293.34</ele>
        <time>2022-01-23T10:26:05Z</time>
      </trkpt>
      <trkpt lat="47.73397" lon="5.99045">
        <ele>292.12</ele>
        <time>2022-01-23T10:26:09Z</time>
      </trkpt>
      <trkpt lat="47.73408" lon="5.99073">
        <ele>290.88</ele>
        <time>2022-01-23T10:26:14Z</time>
      </trkpt>
      <trkpt lat="47.73422" lon="5.99096">
        <ele>290.44</ele>
        <time>2022-01-23T10:26:19Z</time>
      </trkpt>
      <trkpt lat="47.73436" lon="5.99113">
        <ele>289.85</ele>
        <time>2022-01-23T10:26:24Z</time>
      </trkpt>
      <trkpt lat="47.73446" lon="5.99141">
        <ele>288.6</ele>
        <time>2022-01-23T10:26:30Z</time>
      </trkpt>
      <trkpt lat="47.73456" lon="5.99168">
        <ele>289.5</ele>
        <time>2022-01-23T10:26:36Z</time>
      </trkpt>
      <trkpt lat="47.73466" lon="5.99194">
        <ele>288.61</ele>
        <time>2022-01-23T10:26:44Z</time>
      </trkpt>
      <trkpt lat="47.73479" lon="5.99215">
        <ele>287.71</ele>
        <time>2022-01-23T10:26:51Z</time>
      </trkpt>
      <trkpt lat="47.73497" lon="5.99229">
        <ele>285.15</ele>
        <time>2022-01-23T10:27:00Z</time>
      </trkpt>
      <trkpt lat="47.7351" lon="5.9925">
        <ele>284.16</ele>
        <time>2022-01-23T10:27:09Z</time>
      </trkpt>
      <trkpt lat="47.73522" lon="5.99271">
        <ele>284.66</ele>
        <time>2022-01-23T10:27:18Z</time>
      </trkpt>
      <trkpt lat="47.73534" lon="5.99294">
        <ele>284.31</ele>
        <time>2022-01-23T10:27:28Z</time>
      </trkpt>
      <trkpt lat="47.73548" lon="5.99317">
        <ele>284.79</ele>
        <time>2022-01-23T10:27:35Z</time>
      </trkpt>
      <trkpt lat="47.73563" lon="5.99336">
        <ele>286.39</ele>
        <time>2022-01-23T10:27:43Z</time>
      </trkpt>
      <trkpt lat="47.7357" lon="5.99363">
        <ele>287.74</ele>
        <time>2022-01-23T10:27:49Z</time>
      </trkpt>
      <trkpt lat="47.73576" lon="5.99388">
        <ele>288.93</ele>
        <time>2022-01-23T10:27:54Z</time>
      </trkpt>
      <trkpt lat="47.73586" lon="5.9941">
        <ele>289.89</ele>
        <time>2022-01-23T10:28:01Z</time>
      </trkpt>
      <trkpt lat="47.73596" lon="5.99434">
        <ele>292.5</ele>
        <time>2022-01-23T10:28:09Z</time>
      </trkpt>
      <trkpt lat="47.73607" lon="5.99459">
        <ele>292.01</ele>
        <time>2022-01-23T10:28:17Z</time>
      </trkpt>
      <trkpt lat="47.73618" lon="5.99483">
        <ele>291.21</ele>
        <time>2022-01-23T10:28:24Z</time>
      </trkpt>
      <trkpt lat="47.73626" lon="5.9951">
        <ele>291.55</ele>
        <time>2022-01-23T10:28:31Z</time>
      </trkpt>
      <trkpt lat="47.73641" lon="5.99529">
        <ele>293.78</ele>
        <time>2022-01-23T10:28:38Z</time>
      </trkpt>
      <trkpt lat="47.73654" lon="5.99553">
        <ele>294.54</ele>
        <time>2022-01-23T10:28:45Z</time>
      </trkpt>
      <trkpt lat="47.73666" lon="5.99576">
        <ele>294.31</ele>
        <time>2022-01-23T10:28:51Z</time>
      </trkpt>
      <trkpt lat="47.73676" lon="5.996">
        <ele>294.56</ele>
        <time>2022-01-23T10:28:55Z</time>
      </trkpt>
      <trkpt lat="47.73685" lon="5.99623">
        <ele>294.62</ele>
        <time>2022-01-23T10:28:59Z</time>
      </trkpt>
      <trkpt lat="47.73692" lon="5.99649">
        <ele>294.7</ele>
        <time>2022-01-23T10:29:04Z</time>
      </trkpt>
      <trkpt lat="47.73705" lon="5.99673">
        <ele>294.25</ele>
        <time>2022-01-23T10:29:08Z</time>
      </trkpt>
      <trkpt lat="47.73705" lon="5.99703">
        <ele>293.21</ele>
        <time>2022-01-23T10:29:12Z</time>
      </trkpt>
      <trkpt lat="47.73702" lon="5.99735">
        <ele>292.35</ele>
        <time>2022-01-23T10:29:15Z</time>
      </trkpt>
      <trkpt lat="47.73711" lon="5.99765">
        <ele>291.71</ele>
        <time>2022-01-23T10:29:18Z</time>
      </trkpt>
      <trkpt lat="47.7372" lon="5.99798">
        <ele>291.5</ele>
        <time>2022-01-23T10:29:21Z</time>
      </trkpt>
      <trkpt lat="47.73727" lon="5.99832">
        <ele>291.12</ele>
        <time>2022-01-23T10:29:24Z</time>
      </trkpt>
      <trkpt lat="47.73731" lon="5.99866">
        <ele>290.25</ele>
        <time>2022-01-23T10:29:27Z</time>
      </trkpt>
      <trkpt lat="47.73736" lon="5.99898">
        <ele>289.73</ele>
        <time>2022-01-23T10:29:30Z</time>
      </trkpt>
      <trkpt lat="47.73739" lon="5.99926">
        <ele>288.94</ele>
        <time>2022-01-23T10:29:33Z</time>
      </trkpt>
      <trkpt lat="47.73732" lon="5.99962">
        <ele>287.26</ele>
        <time>2022-01-23T10:29:36Z</time>
      </trkpt>
      <trkpt lat="47.73724" lon="5.99999">
        <ele>286.59</ele>
        <time>2022-01-23T10:29:39Z</time>
      </trkpt>
      <trkpt lat="47.73722" lon="6.00029">
        <ele>285.43</ele>
        <time>2022-01-23T10:29:42Z</time>
      </trkpt>
      <trkpt lat="47.73741" lon="6.00053">
        <ele>284.66</ele>
        <time>2022-01-23T10:29:46Z</time>
      </trkpt>
      <trkpt lat="47.73765" lon="6.00064">
        <ele>284.04</ele>
        <time>2022-01-23T10:29:49Z</time>
      </trkpt>
      <trkpt lat="47.73792" lon="6.00068">
        <ele>283.47</ele>
        <time>2022-01-23T10:29:52Z</time>
      </trkpt>
      <trkpt lat="47.73818" lon="6.00071">
        <ele>282.62</ele>
        <time>2022-01-23T10:29:55Z</time>
      </trkpt>
      <trkpt lat="47.73841" lon="6.00078">
        <ele>281.43</ele>
        <time>2022-01-23T10:29:58Z</time>
      </trkpt>
      <trkpt lat="47.73866" lon="6.00083">
        <ele>280.41</ele>
        <time>2022-01-23T10:30:01Z</time>
      </trkpt>
      <trkpt lat="47.73892" lon="6.00089">
        <ele>280.06</ele>
        <time>2022-01-23T10:30:04Z</time>
      </trkpt>
      <trkpt lat="47.73915" lon="6.00098">
        <ele>279.8</ele>
        <time>2022-01-23T10:30:07Z</time>
      </trkpt>
      <trkpt lat="47.73965" lon="6.00118">
        <ele>280.46</ele>
        <time>2022-01-23T10:30:13Z</time>
      </trkpt>
      <trkpt lat="47.73984" lon="6.00122">
        <ele>280.98</ele>
        <time>2022-01-23T10:30:15Z</time>
      </trkpt>
      <trkpt lat="47.7397" lon="6.00152">
        <ele>281.26</ele>
        <time>2022-01-23T10:30:23Z</time>
      </trkpt>
      <trkpt lat="47.7396" lon="6.00175">
        <ele>281.51</ele>
        <time>2022-01-23T10:30:26Z</time>
      </trkpt>
      <trkpt lat="47.73951" lon="6.00203">
        <ele>281.68</ele>
        <time>2022-01-23T10:30:29Z</time>
      </trkpt>
      <trkpt lat="47.73941" lon="6.0023">
        <ele>281.56</ele>
        <time>2022-01-23T10:30:32Z</time>
      </trkpt>
      <trkpt lat="47.7393" lon="6.00258">
        <ele>281.81</ele>
        <time>2022-01-23T10:30:35Z</time>
      </trkpt>
      <trkpt lat="47.73919" lon="6.0029">
        <ele>281.3</ele>
        <time>2022-01-23T10:30:38Z</time>
      </trkpt>
      <trkpt lat="47.73919" lon="6.0032">
        <ele>278.29</ele>
        <time>2022-01-23T10:30:42Z</time>
      </trkpt>
      <trkpt lat="47.73933" lon="6.00345">
        <ele>277.02</ele>
        <time>2022-01-23T10:30:46Z</time>
      </trkpt>
      <trkpt lat="47.73951" lon="6.00357">
        <ele>276.27</ele>
        <time>2022-01-23T10:30:50Z</time>
      </trkpt>
      <trkpt lat="47.73972" lon="6.00359">
        <ele>278.34</ele>
        <time>2022-01-23T10:30:55Z</time>
      </trkpt>
      <trkpt lat="47.73987" lon="6.00375">
        <ele>280.77</ele>
        <time>2022-01-23T10:31:02Z</time>
      </trkpt>
      <trkpt lat="47.74004" lon="6.00387">
        <ele>282.22</ele>
        <time>2022-01-23T10:31:08Z</time>
      </trkpt>
      <trkpt lat="47.74022" lon="6.00396">
        <ele>282.85</ele>
        <time>2022-01-23T10:31:13Z</time>
      </trkpt>
      <trkpt lat="47.74035" lon="6.00416">
        <ele>283.42</ele>
        <time>2022-01-23T10:31:23Z</time>
      </trkpt>
      <trkpt lat="47.74055" lon="6.00429">
        <ele>283.12</ele>
        <time>2022-01-23T10:31:29Z</time>
      </trkpt>
      <trkpt lat="47.74064" lon="6.00457">
        <ele>282.43</ele>
        <time>2022-01-23T10:31:37Z</time>
      </trkpt>
      <trkpt lat="47.7408" lon="6.00476">
        <ele>281.57</ele>
        <time>2022-01-23T10:31:42Z</time>
      </trkpt>
      <trkpt lat="47.74085" lon="6.00502">
        <ele>281.52</ele>
        <time>2022-01-23T10:31:46Z</time>
      </trkpt>
      <trkpt lat="47.74078" lon="6.0053">
        <ele>281.41</ele>
        <time>2022-01-23T10:31:50Z</time>
      </trkpt>
      <trkpt lat="47.74081" lon="6.0056">
        <ele>280.61</ele>
        <time>2022-01-23T10:31:54Z</time>
      </trkpt>
      <trkpt lat="47.74096" lon="6.00577">
        <ele>281.21</ele>
        <time>2022-01-23T10:31:57Z</time>
      </trkpt>
      <trkpt lat="47.74089" lon="6.00607">
        <ele>281.16</ele>
        <time>2022-01-23T10:32:01Z</time>
      </trkpt>
      <trkpt lat="47.7408" lon="6.00633">
        <ele>280.94</ele>
        <time>2022-01-23T10:32:04Z</time>
      </trkpt>
      <trkpt lat="47.74069" lon="6.0066">
        <ele>280.95</ele>
        <time>2022-01-23T10:32:06Z</time>
      </trkpt>
      <trkpt lat="47.74058" lon="6.00682">
        <ele>281.03</ele>
        <time>2022-01-23T10:32:08Z</time>
      </trkpt>
      <trkpt lat="47.74044" lon="6.00708">
        <ele>281.21</ele>
        <time>2022-01-23T10:32:11Z</time>
      </trkpt>
      <trkpt lat="47.74032" lon="6.00729">
        <ele>280.52</ele>
        <time>2022-01-23T10:32:14Z</time>
      </trkpt>
      <trkpt lat="47.74015" lon="6.00753">
        <ele>279.8</ele>
        <time>2022-01-23T10:32:18Z</time>
      </trkpt>
      <trkpt lat="47.73998" lon="6.00772">
        <ele>279.58</ele>
        <time>2022-01-23T10:32:21Z</time>
      </trkpt>
      <trkpt lat="47.7398" lon="6.0079">
        <ele>279.57</ele>
        <time>2022-01-23T10:32:24Z</time>
      </trkpt>
      <trkpt lat="47.73958" lon="6.00812">
        <ele>279.6</ele>
        <time>2022-01-23T10:32:27Z</time>
      </trkpt>
      <trkpt lat="47.73936" lon="6.00829">
        <ele>279.45</ele>
        <time>2022-01-23T10:32:30Z</time>
      </trkpt>
      <trkpt lat="47.73913" lon="6.0084">
        <ele>278.65</ele>
        <time>2022-01-23T10:32:33Z</time>
      </trkpt>
      <trkpt lat="47.73889" lon="6.00847">
        <ele>278.58</ele>
        <time>2022-01-23T10:32:36Z</time>
      </trkpt>
      <trkpt lat="47.73865" lon="6.00852">
        <ele>278.08</ele>
        <time>2022-01-23T10:32:39Z</time>
      </trkpt>
      <trkpt lat="47.73841" lon="6.00855">
        <ele>277.89</ele>
        <time>2022-01-23T10:32:42Z</time>
      </trkpt>
      <trkpt lat="47.73818" lon="6.00859">
        <ele>277.87</ele>
        <time>2022-01-23T10:32:45Z</time>
      </trkpt>
      <trkpt lat="47.73793" lon="6.00871">
        <ele>277.59</ele>
        <time>2022-01-23T10:32:48Z</time>
      </trkpt>
      <trkpt lat="47.73769" lon="6.00879">
        <ele>277.28</ele>
        <time>2022-01-23T10:32:51Z</time>
      </trkpt>
      <trkpt lat="47.7375" lon="6.00889">
        <ele>277.01</ele>
        <time>2022-01-23T10:32:53Z</time>
      </trkpt>
      <trkpt lat="47.73729" lon="6.00896">
        <ele>276.89</ele>
        <time>2022-01-23T10:32:55Z</time>
      </trkpt>
      <trkpt lat="47.7371" lon="6.00904">
        <ele>276.89</ele>
        <time>2022-01-23T10:32:57Z</time>
      </trkpt>
      <trkpt lat="47.73691" lon="6.00913">
        <ele>276.68</ele>
        <time>2022-01-23T10:32:59Z</time>
      </trkpt>
      <trkpt lat="47.73673" lon="6.00922">
        <ele>276.16</ele>
        <time>2022-01-23T10:33:01Z</time>
      </trkpt>
      <trkpt lat="47.73648" lon="6.0093">
        <ele>275.26</ele>
        <time>2022-01-23T10:33:04Z</time>
      </trkpt>
      <trkpt lat="47.73626" lon="6.00937">
        <ele>274.54</ele>
        <time>2022-01-23T10:33:07Z</time>
      </trkpt>
      <trkpt lat="47.73604" lon="6.00941">
        <ele>274.11</ele>
        <time>2022-01-23T10:33:10Z</time>
      </trkpt>
      <trkpt lat="47.73581" lon="6.00946">
        <ele>272.72</ele>
        <time>2022-01-23T10:33:13Z</time>
      </trkpt>
      <trkpt lat="47.73556" lon="6.00947">
        <ele>272.07</ele>
        <time>2022-01-23T10:33:16Z</time>
      </trkpt>
      <trkpt lat="47.73538" lon="6.00943">
        <ele>271.73</ele>
        <time>2022-01-23T10:33:18Z</time>
      </trkpt>
      <trkpt lat="47.73519" lon="6.00937">
        <ele>270.85</ele>
        <time>2022-01-23T10:33:20Z</time>
      </trkpt>
      <trkpt lat="47.73493" lon="6.00928">
        <ele>270.24</ele>
        <time>2022-01-23T10:33:23Z</time>
      </trkpt>
      <trkpt lat="47.73476" lon="6.0092">
        <ele>269.4</ele>
        <time>2022-01-23T10:33:25Z</time>
      </trkpt>
      <trkpt lat="47.73456" lon="6.00914">
        <ele>268.31</ele>
        <time>2022-01-23T10:33:27Z</time>
      </trkpt>
      <trkpt lat="47.73437" lon="6.00909">
        <ele>267.62</ele>
        <time>2022-01-23T10:33:29Z</time>
      </trkpt>
      <trkpt lat="47.73417" lon="6.00908">
        <ele>267.44</ele>
        <time>2022-01-23T10:33:31Z</time>
      </trkpt>
      <trkpt lat="47.73398" lon="6.00911">
        <ele>267.85</ele>
        <time>2022-01-23T10:33:33Z</time>
      </trkpt>
      <trkpt lat="47.73372" lon="6.00915">
        <ele>268.09</ele>
        <time>2022-01-23T10:33:36Z</time>
      </trkpt>
      <trkpt lat="47.73348" lon="6.00918">
        <ele>267.47</ele>
        <time>2022-01-23T10:33:39Z</time>
      </trkpt>
      <trkpt lat="47.73321" lon="6.00922">
        <ele>263.9</ele>
        <time>2022-01-23T10:33:42Z</time>
      </trkpt>
      <trkpt lat="47.73304" lon="6.00934">
        <ele>263.14</ele>
        <time>2022-01-23T10:33:44Z</time>
      </trkpt>
      <trkpt lat="47.73282" lon="6.0095">
        <ele>263.3</ele>
        <time>2022-01-23T10:33:47Z</time>
      </trkpt>
      <trkpt lat="47.73263" lon="6.00964">
        <ele>262.01</ele>
        <time>2022-01-23T10:33:50Z</time>
      </trkpt>
      <trkpt lat="47.73246" lon="6.00974">
        <ele>260.63</ele>
        <time>2022-01-23T10:33:53Z</time>
      </trkpt>
      <trkpt lat="47.73228" lon="6.00982">
        <ele>259.69</ele>
        <time>2022-01-23T10:33:56Z</time>
      </trkpt>
      <trkpt lat="47.73205" lon="6.00987">
        <ele>257.33</ele>
        <time>2022-01-23T10:34:00Z</time>
      </trkpt>
      <trkpt lat="47.73183" lon="6.00993">
        <ele>254.99</ele>
        <time>2022-01-23T10:34:04Z</time>
      </trkpt>
      <trkpt lat="47.73165" lon="6.01002">
        <ele>253.47</ele>
        <time>2022-01-23T10:34:07Z</time>
      </trkpt>
      <trkpt lat="47.73148" lon="6.01014">
        <ele>252.29</ele>
        <time>2022-01-23T10:34:10Z</time>
      </trkpt>
      <trkpt lat="47.73131" lon="6.01027">
        <ele>251.68</ele>
        <time>2022-01-23T10:34:13Z</time>
      </trkpt>
      <trkpt lat="47.73114" lon="6.01039">
        <ele>250.88</ele>
        <time>2022-01-23T10:34:16Z</time>
      </trkpt>
      <trkpt lat="47.73097" lon="6.01052">
        <ele>250.69</ele>
        <time>2022-01-23T10:34:19Z</time>
      </trkpt>
      <trkpt lat="47.73076" lon="6.01067">
        <ele>251.36</ele>
        <time>2022-01-23T10:34:23Z</time>
      </trkpt>
      <trkpt lat="47.73058" lon="6.01078">
        <ele>252.46</ele>
        <time>2022-01-23T10:34:26Z</time>
      </trkpt>
      <trkpt lat="47.7304" lon="6.01085">
        <ele>251.11</ele>
        <time>2022-01-23T10:34:30Z</time>
      </trkpt>
      <trkpt lat="47.73022" lon="6.01089">
        <ele>249.9</ele>
        <time>2022-01-23T10:34:34Z</time>
      </trkpt>
      <trkpt lat="47.73001" lon="6.01093">
        <ele>249.29</ele>
        <time>2022-01-23T10:34:39Z</time>
      </trkpt>
      <trkpt lat="47.72977" lon="6.01101">
        <ele>248.29</ele>
        <time>2022-01-23T10:34:44Z</time>
      </trkpt>
      <trkpt lat="47.72958" lon="6.01099">
        <ele>248.25</ele>
        <time>2022-01-23T10:34:48Z</time>
      </trkpt>
      <trkpt lat="47.72937" lon="6.01099">
        <ele>247.63</ele>
        <time>2022-01-23T10:34:52Z</time>
      </trkpt>
      <trkpt lat="47.72917" lon="6.01105">
        <ele>247.42</ele>
        <time>2022-01-23T10:34:55Z</time>
      </trkpt>
      <trkpt lat="47.72897" lon="6.01109">
        <ele>246.93</ele>
        <time>2022-01-23T10:34:58Z</time>
      </trkpt>
      <trkpt lat="47.72875" lon="6.01116">
        <ele>246.32</ele>
        <time>2022-01-23T10:35:01Z</time>
      </trkpt>
      <trkpt lat="47.72854" lon="6.01126">
        <ele>245.81</ele>
        <time>2022-01-23T10:35:04Z</time>
      </trkpt>
      <trkpt lat="47.72832" lon="6.01139">
        <ele>245.26</ele>
        <time>2022-01-23T10:35:07Z</time>
      </trkpt>
      <trkpt lat="47.72811" lon="6.01153">
        <ele>245.12</ele>
        <time>2022-01-23T10:35:11Z</time>
      </trkpt>
      <trkpt lat="47.72793" lon="6.01166">
        <ele>245.23</ele>
        <time>2022-01-23T10:35:15Z</time>
      </trkpt>
      <trkpt lat="47.72775" lon="6.01176">
        <ele>245.31</ele>
        <time>2022-01-23T10:35:19Z</time>
      </trkpt>
      <trkpt lat="47.72755" lon="6.0119">
        <ele>246.64</ele>
        <time>2022-01-23T10:35:25Z</time>
      </trkpt>
      <trkpt lat="47.72737" lon="6.012">
        <ele>247.51</ele>
        <time>2022-01-23T10:35:29Z</time>
      </trkpt>
      <trkpt lat="47.72717" lon="6.01206">
        <ele>247.13</ele>
        <time>2022-01-23T10:35:34Z</time>
      </trkpt>
      <trkpt lat="47.72699" lon="6.01214">
        <ele>247.68</ele>
        <time>2022-01-23T10:35:38Z</time>
      </trkpt>
      <trkpt lat="47.72676" lon="6.01224">
        <ele>248.22</ele>
        <time>2022-01-23T10:35:42Z</time>
      </trkpt>
      <trkpt lat="47.72655" lon="6.01231">
        <ele>248.36</ele>
        <time>2022-01-23T10:35:45Z</time>
      </trkpt>
      <trkpt lat="47.72634" lon="6.01234">
        <ele>248.11</ele>
        <time>2022-01-23T10:35:48Z</time>
      </trkpt>
      <trkpt lat="47.72613" lon="6.01239">
        <ele>247.46</ele>
        <time>2022-01-23T10:35:51Z</time>
      </trkpt>
      <trkpt lat="47.72594" lon="6.01238">
        <ele>247.14</ele>
        <time>2022-01-23T10:35:54Z</time>
      </trkpt>
      <trkpt lat="47.72576" lon="6.01241">
        <ele>246.72</ele>
        <time>2022-01-23T10:35:57Z</time>
      </trkpt>
      <trkpt lat="47.72556" lon="6.01247">
        <ele>246.66</ele>
        <time>2022-01-23T10:36:00Z</time>
      </trkpt>
      <trkpt lat="47.72535" lon="6.0125">
        <ele>245.88</ele>
        <time>2022-01-23T10:36:04Z</time>
      </trkpt>
      <trkpt lat="47.72516" lon="6.01255">
        <ele>246.88</ele>
        <time>2022-01-23T10:36:08Z</time>
      </trkpt>
      <trkpt lat="47.72498" lon="6.0126">
        <ele>247.37</ele>
        <time>2022-01-23T10:36:12Z</time>
      </trkpt>
      <trkpt lat="47.72477" lon="6.01267">
        <ele>246.7</ele>
        <time>2022-01-23T10:36:17Z</time>
      </trkpt>
      <trkpt lat="47.72457" lon="6.01278">
        <ele>247.69</ele>
        <time>2022-01-23T10:36:22Z</time>
      </trkpt>
      <trkpt lat="47.72436" lon="6.0129">
        <ele>248.51</ele>
        <time>2022-01-23T10:36:27Z</time>
      </trkpt>
      <trkpt lat="47.72416" lon="6.01298">
        <ele>247.32</ele>
        <time>2022-01-23T10:36:33Z</time>
      </trkpt>
      <trkpt lat="47.72396" lon="6.01309">
        <ele>247.17</ele>
        <time>2022-01-23T10:36:38Z</time>
      </trkpt>
      <trkpt lat="47.72377" lon="6.01318">
        <ele>247.96</ele>
        <time>2022-01-23T10:36:43Z</time>
      </trkpt>
      <trkpt lat="47.72355" lon="6.01327">
        <ele>248.19</ele>
        <time>2022-01-23T10:36:48Z</time>
      </trkpt>
      <trkpt lat="47.72334" lon="6.01335">
        <ele>247.62</ele>
        <time>2022-01-23T10:36:53Z</time>
      </trkpt>
      <trkpt lat="47.72314" lon="6.01339">
        <ele>246.85</ele>
        <time>2022-01-23T10:36:58Z</time>
      </trkpt>
      <trkpt lat="47.72294" lon="6.01343">
        <ele>246.99</ele>
        <time>2022-01-23T10:37:03Z</time>
      </trkpt>
      <trkpt lat="47.72276" lon="6.01351">
        <ele>247.01</ele>
        <time>2022-01-23T10:37:07Z</time>
      </trkpt>
      <trkpt lat="47.72254" lon="6.01358">
        <ele>247.02</ele>
        <time>2022-01-23T10:37:12Z</time>
      </trkpt>
      <trkpt lat="47.72235" lon="6.01362">
        <ele>247.36</ele>
        <time>2022-01-23T10:37:16Z</time>
      </trkpt>
      <trkpt lat="47.72213" lon="6.01371">
        <ele>248.31</ele>
        <time>2022-01-23T10:37:20Z</time>
      </trkpt>
      <trkpt lat="47.72194" lon="6.01373">
        <ele>249.21</ele>
        <time>2022-01-23T10:37:24Z</time>
      </trkpt>
      <trkpt lat="47.72173" lon="6.01376">
        <ele>249.59</ele>
        <time>2022-01-23T10:37:28Z</time>
      </trkpt>
      <trkpt lat="47.72154" lon="6.01377">
        <ele>249.7</ele>
        <time>2022-01-23T10:37:32Z</time>
      </trkpt>
      <trkpt lat="47.72133" lon="6.01384">
        <ele>249.37</ele>
        <time>2022-01-23T10:37:36Z</time>
      </trkpt>
      <trkpt lat="47.72115" lon="6.01392">
        <ele>249.82</ele>
        <time>2022-01-23T10:37:39Z</time>
      </trkpt>
      <trkpt lat="47.72095" lon="6.01398">
        <ele>250.67</ele>
        <time>2022-01-23T10:37:43Z</time>
      </trkpt>
      <trkpt lat="47.72074" lon="6.01406">
        <ele>252.82</ele>
        <time>2022-01-23T10:39:26Z</time>
      </trkpt>
      <trkpt lat="47.72051" lon="6.01413">
        <ele>253.29</ele>
        <time>2022-01-23T10:39:30Z</time>
      </trkpt>
      <trkpt lat="47.72032" lon="6.01419">
        <ele>253.63</ele>
        <time>2022-01-23T10:39:33Z</time>
      </trkpt>
      <trkpt lat="47.72011" lon="6.01427">
        <ele>253.79</ele>
        <time>2022-01-23T10:39:36Z</time>
      </trkpt>
      <trkpt lat="47.71991" lon="6.01437">
        <ele>253.64</ele>
        <time>2022-01-23T10:39:39Z</time>
      </trkpt>
      <trkpt lat="47.71966" lon="6.01452">
        <ele>253.62</ele>
        <time>2022-01-23T10:39:42Z</time>
      </trkpt>
      <trkpt lat="47.71949" lon="6.01463">
        <ele>253.72</ele>
        <time>2022-01-23T10:39:44Z</time>
      </trkpt>
      <trkpt lat="47.71931" lon="6.01475">
        <ele>253.72</ele>
        <time>2022-01-23T10:39:46Z</time>
      </trkpt>
      <trkpt lat="47.71907" lon="6.01492">
        <ele>253.52</ele>
        <time>2022-01-23T10:39:49Z</time>
      </trkpt>
      <trkpt lat="47.71886" lon="6.01508">
        <ele>253.16</ele>
        <time>2022-01-23T10:39:52Z</time>
      </trkpt>
      <trkpt lat="47.71866" lon="6.01523">
        <ele>252.94</ele>
        <time>2022-01-23T10:39:55Z</time>
      </trkpt>
      <trkpt lat="47.71844" lon="6.01535">
        <ele>253.19</ele>
        <time>2022-01-23T10:39:58Z</time>
      </trkpt>
      <trkpt lat="47.71825" lon="6.01547">
        <ele>253.48</ele>
        <time>2022-01-23T10:40:01Z</time>
      </trkpt>
      <trkpt lat="47.71804" lon="6.01562">
        <ele>253.63</ele>
        <time>2022-01-23T10:40:04Z</time>
      </trkpt>
      <trkpt lat="47.71783" lon="6.01582">
        <ele>254.42</ele>
        <time>2022-01-23T10:40:07Z</time>
      </trkpt>
      <trkpt lat="47.71769" lon="6.01599">
        <ele>255.07</ele>
        <time>2022-01-23T10:40:09Z</time>
      </trkpt>
      <trkpt lat="47.71755" lon="6.01622">
        <ele>255.69</ele>
        <time>2022-01-23T10:40:12Z</time>
      </trkpt>
      <trkpt lat="47.7174" lon="6.01644">
        <ele>255.69</ele>
        <time>2022-01-23T10:40:15Z</time>
      </trkpt>
      <trkpt lat="47.71722" lon="6.01659">
        <ele>255.71</ele>
        <time>2022-01-23T10:40:18Z</time>
      </trkpt>
      <trkpt lat="47.71707" lon="6.01641">
        <ele>255.71</ele>
        <time>2022-01-23T10:40:25Z</time>
      </trkpt>
      <trkpt lat="47.71701" lon="6.01613">
        <ele>255.81</ele>
        <time>2022-01-23T10:40:30Z</time>
      </trkpt>
      <trkpt lat="47.71683" lon="6.016">
        <ele>256.22</ele>
        <time>2022-01-23T10:40:34Z</time>
      </trkpt>
      <trkpt lat="47.71671" lon="6.01574">
        <ele>255.94</ele>
        <time>2022-01-23T10:40:39Z</time>
      </trkpt>
      <trkpt lat="47.71661" lon="6.01551">
        <ele>255.53</ele>
        <time>2022-01-23T10:40:44Z</time>
      </trkpt>
      <trkpt lat="47.71659" lon="6.01521">
        <ele>255.3</ele>
        <time>2022-01-23T10:40:50Z</time>
      </trkpt>
      <trkpt lat="47.71654" lon="6.0149">
        <ele>255.23</ele>
        <time>2022-01-23T10:40:55Z</time>
      </trkpt>
      <trkpt lat="47.7165" lon="6.01459">
        <ele>254.16</ele>
        <time>2022-01-23T10:41:00Z</time>
      </trkpt>
      <trkpt lat="47.71643" lon="6.01429">
        <ele>252.9</ele>
        <time>2022-01-23T10:41:07Z</time>
      </trkpt>
      <trkpt lat="47.71643" lon="6.01399">
        <ele>253.81</ele>
        <time>2022-01-23T10:41:12Z</time>
      </trkpt>
      <trkpt lat="47.71634" lon="6.01376">
        <ele>253.55</ele>
        <time>2022-01-23T10:41:20Z</time>
      </trkpt>
      <trkpt lat="47.71616" lon="6.01359">
        <ele>254.64</ele>
        <time>2022-01-23T10:41:29Z</time>
      </trkpt>
      <trkpt lat="47.71602" lon="6.0134">
        <ele>256.43</ele>
        <time>2022-01-23T10:41:37Z</time>
      </trkpt>
      <trkpt lat="47.7158" lon="6.01282">
        <ele>257.5</ele>
        <time>2022-01-23T10:42:07Z</time>
      </trkpt>
      <trkpt lat="47.71564" lon="6.01259">
        <ele>256.47</ele>
        <time>2022-01-23T10:42:13Z</time>
      </trkpt>
      <trkpt lat="47.71555" lon="6.01235">
        <ele>256.62</ele>
        <time>2022-01-23T10:42:20Z</time>
      </trkpt>
      <trkpt lat="47.71541" lon="6.01215">
        <ele>257.59</ele>
        <time>2022-01-23T10:42:26Z</time>
      </trkpt>
      <trkpt lat="47.71535" lon="6.01187">
        <ele>257.55</ele>
        <time>2022-01-23T10:42:34Z</time>
      </trkpt>
      <trkpt lat="47.7152" lon="6.01169">
        <ele>256.93</ele>
        <time>2022-01-23T10:42:40Z</time>
      </trkpt>
      <trkpt lat="47.71503" lon="6.01153">
        <ele>256.34</ele>
        <time>2022-01-23T10:42:48Z</time>
      </trkpt>
      <trkpt lat="47.71484" lon="6.01161">
        <ele>255.99</ele>
        <time>2022-01-23T10:42:53Z</time>
      </trkpt>
      <trkpt lat="47.71468" lon="6.01142">
        <ele>255.41</ele>
        <time>2022-01-23T10:43:00Z</time>
      </trkpt>
      <trkpt lat="47.71454" lon="6.01082">
        <ele>255.46</ele>
        <time>2022-01-23T10:43:08Z</time>
      </trkpt>
      <trkpt lat="47.71452" lon="6.01052">
        <ele>255.6</ele>
        <time>2022-01-23T10:43:10Z</time>
      </trkpt>
      <trkpt lat="47.71449" lon="6.01025">
        <ele>255.76</ele>
        <time>2022-01-23T10:43:12Z</time>
      </trkpt>
      <trkpt lat="47.7144" lon="6.01001">
        <ele>256.13</ele>
        <time>2022-01-23T10:43:15Z</time>
      </trkpt>
      <trkpt lat="47.71429" lon="6.00976">
        <ele>256.7</ele>
        <time>2022-01-23T10:43:20Z</time>
      </trkpt>
      <trkpt lat="47.71424" lon="6.0095">
        <ele>257.36</ele>
        <time>2022-01-23T10:43:26Z</time>
      </trkpt>
      <trkpt lat="47.71419" lon="6.00922">
        <ele>256.99</ele>
        <time>2022-01-23T10:43:34Z</time>
      </trkpt>
      <trkpt lat="47.71416" lon="6.00895">
        <ele>255.25</ele>
        <time>2022-01-23T10:43:40Z</time>
      </trkpt>
      <trkpt lat="47.71407" lon="6.00868">
        <ele>255.17</ele>
        <time>2022-01-23T10:43:46Z</time>
      </trkpt>
      <trkpt lat="47.71388" lon="6.00852">
        <ele>255.57</ele>
        <time>2022-01-23T10:43:52Z</time>
      </trkpt>
      <trkpt lat="47.71371" lon="6.00845">
        <ele>256.05</ele>
        <time>2022-01-23T10:43:58Z</time>
      </trkpt>
      <trkpt lat="47.71351" lon="6.0084">
        <ele>256.36</ele>
        <time>2022-01-23T10:44:05Z</time>
      </trkpt>
      <trkpt lat="47.71332" lon="6.00841">
        <ele>256.79</ele>
        <time>2022-01-23T10:44:11Z</time>
      </trkpt>
      <trkpt lat="47.71313" lon="6.00837">
        <ele>257.28</ele>
        <time>2022-01-23T10:44:18Z</time>
      </trkpt>
      <trkpt lat="47.71292" lon="6.00834">
        <ele>257.01</ele>
        <time>2022-01-23T10:44:25Z</time>
      </trkpt>
      <trkpt lat="47.71272" lon="6.0083">
        <ele>256.67</ele>
        <time>2022-01-23T10:44:31Z</time>
      </trkpt>
      <trkpt lat="47.71252" lon="6.00819">
        <ele>256.64</ele>
        <time>2022-01-23T10:44:36Z</time>
      </trkpt>
      <trkpt lat="47.71233" lon="6.00805">
        <ele>256.91</ele>
        <time>2022-01-23T10:44:40Z</time>
      </trkpt>
      <trkpt lat="47.71215" lon="6.00786">
        <ele>257.46</ele>
        <time>2022-01-23T10:44:44Z</time>
      </trkpt>
      <trkpt lat="47.71199" lon="6.00773">
        <ele>257.63</ele>
        <time>2022-01-23T10:44:47Z</time>
      </trkpt>
      <trkpt lat="47.71181" lon="6.00763">
        <ele>257.47</ele>
        <time>2022-01-23T10:44:50Z</time>
      </trkpt>
      <trkpt lat="47.71162" lon="6.00757">
        <ele>257.18</ele>
        <time>2022-01-23T10:44:55Z</time>
      </trkpt>
      <trkpt lat="47.71146" lon="6.00742">
        <ele>254.85</ele>
        <time>2022-01-23T10:45:07Z</time>
      </trkpt>
      <trkpt lat="47.71127" lon="6.00731">
        <ele>254.51</ele>
        <time>2022-01-23T10:45:12Z</time>
      </trkpt>
      <trkpt lat="47.71109" lon="6.00735">
        <ele>254.8</ele>
        <time>2022-01-23T10:45:15Z</time>
      </trkpt>
      <trkpt lat="47.71083" lon="6.00726">
        <ele>255.26</ele>
        <time>2022-01-23T10:45:18Z</time>
      </trkpt>
      <trkpt lat="47.71067" lon="6.00714">
        <ele>255.58</ele>
        <time>2022-01-23T10:45:20Z</time>
      </trkpt>
      <trkpt lat="47.7105" lon="6.00707">
        <ele>256.01</ele>
        <time>2022-01-23T10:45:22Z</time>
      </trkpt>
      <trkpt lat="47.71027" lon="6.00694">
        <ele>256.2</ele>
        <time>2022-01-23T10:45:25Z</time>
      </trkpt>
      <trkpt lat="47.71007" lon="6.00679">
        <ele>255.74</ele>
        <time>2022-01-23T10:45:28Z</time>
      </trkpt>
      <trkpt lat="47.70991" lon="6.00662">
        <ele>255.69</ele>
        <time>2022-01-23T10:45:32Z</time>
      </trkpt>
      <trkpt lat="47.70978" lon="6.00641">
        <ele>255.87</ele>
        <time>2022-01-23T10:45:36Z</time>
      </trkpt>
      <trkpt lat="47.70965" lon="6.00619">
        <ele>255.47</ele>
        <time>2022-01-23T10:45:42Z</time>
      </trkpt>
      <trkpt lat="47.70947" lon="6.00606">
        <ele>256.64</ele>
        <time>2022-01-23T10:45:51Z</time>
      </trkpt>
      <trkpt lat="47.70928" lon="6.00601">
        <ele>257.57</ele>
        <time>2022-01-23T10:45:59Z</time>
      </trkpt>
      <trkpt lat="47.7091" lon="6.00613">
        <ele>259.34</ele>
        <time>2022-01-23T10:46:08Z</time>
      </trkpt>
      <trkpt lat="47.709" lon="6.00642">
        <ele>258.04</ele>
        <time>2022-01-23T10:46:14Z</time>
      </trkpt>
      <trkpt lat="47.7089" lon="6.00671">
        <ele>257.25</ele>
        <time>2022-01-23T10:46:19Z</time>
      </trkpt>
      <trkpt lat="47.70885" lon="6.00697">
        <ele>256.23</ele>
        <time>2022-01-23T10:46:23Z</time>
      </trkpt>
      <trkpt lat="47.70877" lon="6.00727">
        <ele>255.33</ele>
        <time>2022-01-23T10:46:27Z</time>
      </trkpt>
      <trkpt lat="47.7087" lon="6.0076">
        <ele>253.84</ele>
        <time>2022-01-23T10:46:31Z</time>
      </trkpt>
      <trkpt lat="47.70861" lon="6.00785">
        <ele>252.35</ele>
        <time>2022-01-23T10:46:34Z</time>
      </trkpt>
      <trkpt lat="47.70851" lon="6.00809">
        <ele>251.3</ele>
        <time>2022-01-23T10:46:37Z</time>
      </trkpt>
      <trkpt lat="47.70839" lon="6.00833">
        <ele>251.22</ele>
        <time>2022-01-23T10:46:40Z</time>
      </trkpt>
      <trkpt lat="47.70825" lon="6.00855">
        <ele>251.18</ele>
        <time>2022-01-23T10:46:43Z</time>
      </trkpt>
      <trkpt lat="47.70812" lon="6.00883">
        <ele>251.26</ele>
        <time>2022-01-23T10:46:46Z</time>
      </trkpt>
      <trkpt lat="47.70809" lon="6.00916">
        <ele>250.81</ele>
        <time>2022-01-23T10:46:49Z</time>
      </trkpt>
      <trkpt lat="47.70807" lon="6.0095">
        <ele>248.72</ele>
        <time>2022-01-23T10:46:52Z</time>
      </trkpt>
      <trkpt lat="47.70808" lon="6.00981">
        <ele>247.7</ele>
        <time>2022-01-23T10:46:55Z</time>
      </trkpt>
      <trkpt lat="47.7081" lon="6.01014">
        <ele>245.94</ele>
        <time>2022-01-23T10:46:58Z</time>
      </trkpt>
      <trkpt lat="47.70814" lon="6.01047">
        <ele>244.8</ele>
        <time>2022-01-23T10:47:01Z</time>
      </trkpt>
      <trkpt lat="47.70824" lon="6.01075">
        <ele>245.06</ele>
        <time>2022-01-23T10:47:04Z</time>
      </trkpt>
      <trkpt lat="47.70829" lon="6.01108">
        <ele>246.11</ele>
        <time>2022-01-23T10:47:07Z</time>
      </trkpt>
      <trkpt lat="47.70835" lon="6.01135">
        <ele>246.72</ele>
        <time>2022-01-23T10:47:10Z</time>
      </trkpt>
      <trkpt lat="47.70839" lon="6.01162">
        <ele>247.57</ele>
        <time>2022-01-23T10:47:13Z</time>
      </trkpt>
      <trkpt lat="47.70837" lon="6.01192">
        <ele>247.95</ele>
        <time>2022-01-23T10:47:16Z</time>
      </trkpt>
      <trkpt lat="47.70839" lon="6.01225">
        <ele>247.7</ele>
        <time>2022-01-23T10:47:20Z</time>
      </trkpt>
      <trkpt lat="47.70839" lon="6.01258">
        <ele>247.27</ele>
        <time>2022-01-23T10:47:24Z</time>
      </trkpt>
      <trkpt lat="47.7084" lon="6.01287">
        <ele>246.38</ele>
        <time>2022-01-23T10:47:27Z</time>
      </trkpt>
      <trkpt lat="47.7084" lon="6.0132">
        <ele>244.98</ele>
        <time>2022-01-23T10:47:30Z</time>
      </trkpt>
      <trkpt lat="47.70838" lon="6.0135">
        <ele>244.37</ele>
        <time>2022-01-23T10:47:33Z</time>
      </trkpt>
      <trkpt lat="47.70831" lon="6.01386">
        <ele>243.98</ele>
        <time>2022-01-23T10:47:36Z</time>
      </trkpt>
      <trkpt lat="47.70823" lon="6.0142">
        <ele>244.08</ele>
        <time>2022-01-23T10:47:39Z</time>
      </trkpt>
      <trkpt lat="47.70811" lon="6.01449">
        <ele>243.83</ele>
        <time>2022-01-23T10:47:42Z</time>
      </trkpt>
      <trkpt lat="47.70795" lon="6.01475">
        <ele>243.86</ele>
        <time>2022-01-23T10:47:45Z</time>
      </trkpt>
      <trkpt lat="47.70782" lon="6.01496">
        <ele>244.41</ele>
        <time>2022-01-23T10:47:48Z</time>
      </trkpt>
      <trkpt lat="47.70769" lon="6.01516">
        <ele>245.01</ele>
        <time>2022-01-23T10:47:51Z</time>
      </trkpt>
      <trkpt lat="47.70756" lon="6.01534">
        <ele>245.78</ele>
        <time>2022-01-23T10:47:54Z</time>
      </trkpt>
      <trkpt lat="47.7074" lon="6.01555">
        <ele>247.16</ele>
        <time>2022-01-23T10:47:57Z</time>
      </trkpt>
      <trkpt lat="47.70729" lon="6.01582">
        <ele>248.46</ele>
        <time>2022-01-23T10:48:00Z</time>
      </trkpt>
      <trkpt lat="47.70724" lon="6.01608">
        <ele>248.95</ele>
        <time>2022-01-23T10:48:03Z</time>
      </trkpt>
      <trkpt lat="47.7072" lon="6.01636">
        <ele>248.78</ele>
        <time>2022-01-23T10:48:06Z</time>
      </trkpt>
      <trkpt lat="47.70713" lon="6.01669">
        <ele>248.88</ele>
        <time>2022-01-23T10:48:11Z</time>
      </trkpt>
      <trkpt lat="47.70702" lon="6.01701">
        <ele>249.66</ele>
        <time>2022-01-23T10:48:15Z</time>
      </trkpt>
      <trkpt lat="47.70695" lon="6.0173">
        <ele>250.58</ele>
        <time>2022-01-23T10:48:18Z</time>
      </trkpt>
      <trkpt lat="47.70686" lon="6.01759">
        <ele>250.92</ele>
        <time>2022-01-23T10:48:21Z</time>
      </trkpt>
      <trkpt lat="47.70681" lon="6.01789">
        <ele>250.97</ele>
        <time>2022-01-23T10:48:25Z</time>
      </trkpt>
      <trkpt lat="47.70678" lon="6.01817">
        <ele>251.13</ele>
        <time>2022-01-23T10:48:29Z</time>
      </trkpt>
      <trkpt lat="47.70674" lon="6.01852">
        <ele>251.76</ele>
        <time>2022-01-23T10:48:33Z</time>
      </trkpt>
      <trkpt lat="47.70676" lon="6.0188">
        <ele>248.96</ele>
        <time>2022-01-23T10:48:36Z</time>
      </trkpt>
      <trkpt lat="47.70679" lon="6.01907">
        <ele>244.78</ele>
        <time>2022-01-23T10:48:39Z</time>
      </trkpt>
      <trkpt lat="47.70677" lon="6.01938">
        <ele>242.32</ele>
        <time>2022-01-23T10:48:42Z</time>
      </trkpt>
      <trkpt lat="47.70672" lon="6.01966">
        <ele>241.92</ele>
        <time>2022-01-23T10:48:45Z</time>
      </trkpt>
      <trkpt lat="47.70668" lon="6.01992">
        <ele>242.11</ele>
        <time>2022-01-23T10:48:48Z</time>
      </trkpt>
      <trkpt lat="47.70663" lon="6.02025">
        <ele>242.22</ele>
        <time>2022-01-23T10:48:52Z</time>
      </trkpt>
      <trkpt lat="47.70662" lon="6.02057">
        <ele>242.05</ele>
        <time>2022-01-23T10:48:57Z</time>
      </trkpt>
      <trkpt lat="47.70658" lon="6.02085">
        <ele>241.79</ele>
        <time>2022-01-23T10:49:02Z</time>
      </trkpt>
      <trkpt lat="47.70648" lon="6.02113">
        <ele>242.77</ele>
        <time>2022-01-23T10:49:08Z</time>
      </trkpt>
      <trkpt lat="47.70637" lon="6.02134">
        <ele>242.36</ele>
        <time>2022-01-23T10:49:14Z</time>
      </trkpt>
      <trkpt lat="47.70622" lon="6.0215">
        <ele>242.84</ele>
        <time>2022-01-23T10:49:18Z</time>
      </trkpt>
      <trkpt lat="47.70606" lon="6.02169">
        <ele>243.22</ele>
        <time>2022-01-23T10:49:21Z</time>
      </trkpt>
      <trkpt lat="47.7059" lon="6.02188">
        <ele>243.21</ele>
        <time>2022-01-23T10:49:26Z</time>
      </trkpt>
      <trkpt lat="47.70573" lon="6.02203">
        <ele>242.52</ele>
        <time>2022-01-23T10:49:31Z</time>
      </trkpt>
      <trkpt lat="47.70559" lon="6.02224">
        <ele>242.11</ele>
        <time>2022-01-23T10:49:35Z</time>
      </trkpt>
      <trkpt lat="47.70542" lon="6.02245">
        <ele>242.7</ele>
        <time>2022-01-23T10:49:38Z</time>
      </trkpt>
      <trkpt lat="47.70527" lon="6.02265">
        <ele>243.09</ele>
        <time>2022-01-23T10:49:41Z</time>
      </trkpt>
      <trkpt lat="47.70512" lon="6.02292">
        <ele>243.92</ele>
        <time>2022-01-23T10:49:44Z</time>
      </trkpt>
      <trkpt lat="47.70503" lon="6.02321">
        <ele>244.65</ele>
        <time>2022-01-23T10:49:47Z</time>
      </trkpt>
      <trkpt lat="47.70491" lon="6.02348">
        <ele>245.79</ele>
        <time>2022-01-23T10:49:50Z</time>
      </trkpt>
      <trkpt lat="47.70481" lon="6.02373">
        <ele>246.53</ele>
        <time>2022-01-23T10:49:54Z</time>
      </trkpt>
      <trkpt lat="47.70466" lon="6.02402">
        <ele>246.76</ele>
        <time>2022-01-23T10:49:57Z</time>
      </trkpt>
      <trkpt lat="47.70456" lon="6.02426">
        <ele>248.06</ele>
        <time>2022-01-23T10:50:01Z</time>
      </trkpt>
      <trkpt lat="47.70439" lon="6.02442">
        <ele>238.83</ele>
        <time>2022-01-23T10:50:47Z</time>
      </trkpt>
      <trkpt lat="47.70423" lon="6.02459">
        <ele>236.59</ele>
        <time>2022-01-23T10:50:51Z</time>
      </trkpt>
      <trkpt lat="47.70407" lon="6.02477">
        <ele>235.91</ele>
        <time>2022-01-23T10:50:55Z</time>
      </trkpt>
      <trkpt lat="47.70398" lon="6.02501">
        <ele>233.94</ele>
        <time>2022-01-23T10:50:59Z</time>
      </trkpt>
      <trkpt lat="47.70378" lon="6.02514">
        <ele>234.2</ele>
        <time>2022-01-23T10:51:03Z</time>
      </trkpt>
      <trkpt lat="47.70358" lon="6.02529">
        <ele>235.13</ele>
        <time>2022-01-23T10:51:06Z</time>
      </trkpt>
      <trkpt lat="47.70341" lon="6.02545">
        <ele>235.06</ele>
        <time>2022-01-23T10:51:09Z</time>
      </trkpt>
      <trkpt lat="47.70324" lon="6.02567">
        <ele>233.91</ele>
        <time>2022-01-23T10:51:12Z</time>
      </trkpt>
      <trkpt lat="47.70307" lon="6.02589">
        <ele>232.66</ele>
        <time>2022-01-23T10:51:15Z</time>
      </trkpt>
      <trkpt lat="47.7029" lon="6.02612">
        <ele>231.79</ele>
        <time>2022-01-23T10:51:18Z</time>
      </trkpt>
      <trkpt lat="47.70271" lon="6.02637">
        <ele>230.88</ele>
        <time>2022-01-23T10:51:21Z</time>
      </trkpt>
      <trkpt lat="47.70251" lon="6.02661">
        <ele>229.85</ele>
        <time>2022-01-23T10:51:24Z</time>
      </trkpt>
      <trkpt lat="47.70233" lon="6.02689">
        <ele>228.31</ele>
        <time>2022-01-23T10:51:27Z</time>
      </trkpt>
      <trkpt lat="47.7022" lon="6.02716">
        <ele>226.47</ele>
        <time>2022-01-23T10:51:30Z</time>
      </trkpt>
      <trkpt lat="47.70207" lon="6.02746">
        <ele>226.05</ele>
        <time>2022-01-23T10:51:33Z</time>
      </trkpt>
      <trkpt lat="47.70195" lon="6.02778">
        <ele>225.86</ele>
        <time>2022-01-23T10:51:36Z</time>
      </trkpt>
      <trkpt lat="47.70186" lon="6.02801">
        <ele>225.05</ele>
        <time>2022-01-23T10:51:38Z</time>
      </trkpt>
      <trkpt lat="47.70176" lon="6.0283">
        <ele>223.65</ele>
        <time>2022-01-23T10:51:41Z</time>
      </trkpt>
      <trkpt lat="47.70163" lon="6.02859">
        <ele>223.14</ele>
        <time>2022-01-23T10:51:44Z</time>
      </trkpt>
      <trkpt lat="47.70148" lon="6.02888">
        <ele>222.22</ele>
        <time>2022-01-23T10:51:47Z</time>
      </trkpt>
      <trkpt lat="47.70134" lon="6.02912">
        <ele>221.66</ele>
        <time>2022-01-23T10:51:50Z</time>
      </trkpt>
      <trkpt lat="47.70121" lon="6.02937">
        <ele>221.71</ele>
        <time>2022-01-23T10:51:53Z</time>
      </trkpt>
      <trkpt lat="47.70109" lon="6.02963">
        <ele>222.43</ele>
        <time>2022-01-23T10:51:56Z</time>
      </trkpt>
      <trkpt lat="47.70099" lon="6.02995">
        <ele>222.55</ele>
        <time>2022-01-23T10:51:59Z</time>
      </trkpt>
      <trkpt lat="47.70095" lon="6.03022">
        <ele>222.21</ele>
        <time>2022-01-23T10:52:02Z</time>
      </trkpt>
      <trkpt lat="47.70089" lon="6.03057">
        <ele>220.39</ele>
        <time>2022-01-23T10:52:06Z</time>
      </trkpt>
      <trkpt lat="47.70084" lon="6.03083">
        <ele>219.38</ele>
        <time>2022-01-23T10:52:09Z</time>
      </trkpt>
      <trkpt lat="47.70078" lon="6.03112">
        <ele>219.6</ele>
        <time>2022-01-23T10:52:13Z</time>
      </trkpt>
      <trkpt lat="47.70077" lon="6.03141">
        <ele>219.06</ele>
        <time>2022-01-23T10:52:16Z</time>
      </trkpt>
      <trkpt lat="47.70074" lon="6.03174">
        <ele>218.81</ele>
        <time>2022-01-23T10:52:19Z</time>
      </trkpt>
      <trkpt lat="47.70073" lon="6.03206">
        <ele>218.98</ele>
        <time>2022-01-23T10:52:22Z</time>
      </trkpt>
      <trkpt lat="47.70075" lon="6.0324">
        <ele>218.42</ele>
        <time>2022-01-23T10:52:25Z</time>
      </trkpt>
      <trkpt lat="47.70079" lon="6.03272">
        <ele>217.9</ele>
        <time>2022-01-23T10:52:28Z</time>
      </trkpt>
      <trkpt lat="47.70083" lon="6.03305">
        <ele>217.63</ele>
        <time>2022-01-23T10:52:31Z</time>
      </trkpt>
      <trkpt lat="47.70084" lon="6.03337">
        <ele>216.67</ele>
        <time>2022-01-23T10:52:34Z</time>
      </trkpt>
      <trkpt lat="47.70086" lon="6.0337">
        <ele>214.9</ele>
        <time>2022-01-23T10:52:37Z</time>
      </trkpt>
      <trkpt lat="47.70092" lon="6.03406">
        <ele>214.76</ele>
        <time>2022-01-23T10:52:40Z</time>
      </trkpt>
      <trkpt lat="47.70092" lon="6.03439">
        <ele>213.55</ele>
        <time>2022-01-23T10:52:43Z</time>
      </trkpt>
      <trkpt lat="47.70092" lon="6.03476">
        <ele>213.53</ele>
        <time>2022-01-23T10:52:46Z</time>
      </trkpt>
      <trkpt lat="47.70081" lon="6.03513">
        <ele>213.87</ele>
        <time>2022-01-23T10:52:49Z</time>
      </trkpt>
      <trkpt lat="47.70072" lon="6.03539">
        <ele>214.51</ele>
        <time>2022-01-23T10:52:51Z</time>
      </trkpt>
      <trkpt lat="47.70063" lon="6.03563">
        <ele>215.61</ele>
        <time>2022-01-23T10:52:53Z</time>
      </trkpt>
      <trkpt lat="47.7005" lon="6.03594">
        <ele>216.06</ele>
        <time>2022-01-23T10:52:56Z</time>
      </trkpt>
      <trkpt lat="47.70038" lon="6.03622">
        <ele>216.78</ele>
        <time>2022-01-23T10:52:59Z</time>
      </trkpt>
      <trkpt lat="47.70025" lon="6.03645">
        <ele>216.87</ele>
        <time>2022-01-23T10:53:02Z</time>
      </trkpt>
      <trkpt lat="47.70012" lon="6.03665">
        <ele>216.58</ele>
        <time>2022-01-23T10:53:05Z</time>
      </trkpt>
      <trkpt lat="47.69998" lon="6.03683">
        <ele>216.35</ele>
        <time>2022-01-23T10:53:08Z</time>
      </trkpt>
      <trkpt lat="47.69983" lon="6.03699">
        <ele>216.18</ele>
        <time>2022-01-23T10:53:11Z</time>
      </trkpt>
      <trkpt lat="47.69967" lon="6.03713">
        <ele>216.14</ele>
        <time>2022-01-23T10:53:14Z</time>
      </trkpt>
      <trkpt lat="47.69951" lon="6.03726">
        <ele>215.15</ele>
        <time>2022-01-23T10:53:17Z</time>
      </trkpt>
      <trkpt lat="47.69933" lon="6.03735">
        <ele>214.65</ele>
        <time>2022-01-23T10:53:20Z</time>
      </trkpt>
      <trkpt lat="47.69914" lon="6.03741">
        <ele>214.16</ele>
        <time>2022-01-23T10:53:23Z</time>
      </trkpt>
    </trkseg>
  </trk>
</gpx>